<?xml version='1.0' encoding='UTF-8'?>
<gpx version="1.1" creator="https://www.komoot.de" xmlns="http://www.topografix.com/GPX/1/1" xmlns:xsi="http://www.w3.org/2001/XMLSchema-instance" xsi:schemaLocation="http://www.topografix.com/GPX/1/1 http://www.topografix.com/GPX/1/1/gpx.xsd">
  <metadata>
    <name>GABA versione bike tappone 2 02.05.2021</name>
    <author>
      <link href="https://www.komoot.de">
        <text>komoot</text>
        <type>text/html</type>
      </link>
    </author>
  </metadata>
  <trk>
    <name>GABA versione bike tappone 2 02.05.2021</name>
    <trkseg>
      <trkpt lat="42.800187" lon="13.425808">
        <ele>452.258540</ele>
        <time>2021-05-10T17:24:45.510Z</time>
      </trkpt>
      <trkpt lat="42.800187" lon="13.425808">
        <ele>452.258540</ele>
        <time>2021-05-10T17:24:45.677Z</time>
      </trkpt>
      <trkpt lat="42.800187" lon="13.425808">
        <ele>452.258540</ele>
        <time>2021-05-10T17:24:45.698Z</time>
      </trkpt>
      <trkpt lat="42.800600" lon="13.426148">
        <ele>452.258540</ele>
        <time>2021-05-10T17:25:06.326Z</time>
      </trkpt>
      <trkpt lat="42.800655" lon="13.426301">
        <ele>452.258540</ele>
        <time>2021-05-10T17:25:08.627Z</time>
      </trkpt>
      <trkpt lat="42.800625" lon="13.426511">
        <ele>452.258540</ele>
        <time>2021-05-10T17:25:13.948Z</time>
      </trkpt>
      <trkpt lat="42.800729" lon="13.426829">
        <ele>452.016218</ele>
        <time>2021-05-10T17:25:18.999Z</time>
      </trkpt>
      <trkpt lat="42.800953" lon="13.427135">
        <ele>451.379024</ele>
        <time>2021-05-10T17:25:27.750Z</time>
      </trkpt>
      <trkpt lat="42.801192" lon="13.427355">
        <ele>450.799586</ele>
        <time>2021-05-10T17:25:35.533Z</time>
      </trkpt>
      <trkpt lat="42.801263" lon="13.427434">
        <ele>450.615438</ele>
        <time>2021-05-10T17:25:37.017Z</time>
      </trkpt>
      <trkpt lat="42.801398" lon="13.427633">
        <ele>450.215912</ele>
        <time>2021-05-10T17:25:40.309Z</time>
      </trkpt>
      <trkpt lat="42.801486" lon="13.427890">
        <ele>449.797839</ele>
        <time>2021-05-10T17:25:43.364Z</time>
      </trkpt>
      <trkpt lat="42.801492" lon="13.428138">
        <ele>449.432059</ele>
        <time>2021-05-10T17:25:46.037Z</time>
      </trkpt>
      <trkpt lat="42.801337" lon="13.428679">
        <ele>448.368115</ele>
        <time>2021-05-10T17:25:52.098Z</time>
      </trkpt>
      <trkpt lat="42.801124" lon="13.428861">
        <ele>446.340378</ele>
        <time>2021-05-10T17:25:55.575Z</time>
      </trkpt>
      <trkpt lat="42.801050" lon="13.429059">
        <ele>445.025345</ele>
        <time>2021-05-10T17:25:57.835Z</time>
      </trkpt>
      <trkpt lat="42.800985" lon="13.429698">
        <ele>441.207537</ele>
        <time>2021-05-10T17:26:04.346Z</time>
      </trkpt>
      <trkpt lat="42.800929" lon="13.429831">
        <ele>440.300039</ele>
        <time>2021-05-10T17:26:05.894Z</time>
      </trkpt>
      <trkpt lat="42.800688" lon="13.429967">
        <ele>438.196132</ele>
        <time>2021-05-10T17:26:09.357Z</time>
      </trkpt>
      <trkpt lat="42.800432" lon="13.429980">
        <ele>436.129841</ele>
        <time>2021-05-10T17:26:12.706Z</time>
      </trkpt>
      <trkpt lat="42.800069" lon="13.429706">
        <ele>431.616113</ele>
        <time>2021-05-10T17:26:17.729Z</time>
      </trkpt>
      <trkpt lat="42.799546" lon="13.429637">
        <ele>423.726835</ele>
        <time>2021-05-10T17:26:24.057Z</time>
      </trkpt>
      <trkpt lat="42.799190" lon="13.429762">
        <ele>418.207140</ele>
        <time>2021-05-10T17:26:28.505Z</time>
      </trkpt>
      <trkpt lat="42.799082" lon="13.429871">
        <ele>416.189358</ele>
        <time>2021-05-10T17:26:30.212Z</time>
      </trkpt>
      <trkpt lat="42.799017" lon="13.429899">
        <ele>415.165828</ele>
        <time>2021-05-10T17:26:31.012Z</time>
      </trkpt>
      <trkpt lat="42.798960" lon="13.429860">
        <ele>414.208207</ele>
        <time>2021-05-10T17:26:31.767Z</time>
      </trkpt>
      <trkpt lat="42.798574" lon="13.429475">
        <ele>407.027065</ele>
        <time>2021-05-10T17:26:37.554Z</time>
      </trkpt>
      <trkpt lat="42.798524" lon="13.429355">
        <ele>405.516887</ele>
        <time>2021-05-10T17:26:38.822Z</time>
      </trkpt>
      <trkpt lat="42.798559" lon="13.429174">
        <ele>403.468491</ele>
        <time>2021-05-10T17:26:40.439Z</time>
      </trkpt>
      <trkpt lat="42.798895" lon="13.428718">
        <ele>396.396369</ele>
        <time>2021-05-10T17:26:46.153Z</time>
      </trkpt>
      <trkpt lat="42.799516" lon="13.428452">
        <ele>386.687807</ele>
        <time>2021-05-10T17:26:54.046Z</time>
      </trkpt>
      <trkpt lat="42.799656" lon="13.428297">
        <ele>383.997643</ele>
        <time>2021-05-10T17:26:56.287Z</time>
      </trkpt>
      <trkpt lat="42.799692" lon="13.428182">
        <ele>382.629417</ele>
        <time>2021-05-10T17:26:57.423Z</time>
      </trkpt>
      <trkpt lat="42.798937" lon="13.427103">
        <ele>368.780239</ele>
        <time>2021-05-10T17:27:10.774Z</time>
      </trkpt>
      <trkpt lat="42.798586" lon="13.426727">
        <ele>363.295725</ele>
        <time>2021-05-10T17:27:16.357Z</time>
      </trkpt>
      <trkpt lat="42.798516" lon="13.426728">
        <ele>362.435742</ele>
        <time>2021-05-10T17:27:17.180Z</time>
      </trkpt>
      <trkpt lat="42.798717" lon="13.427066">
        <ele>358.514061</ele>
        <time>2021-05-10T17:27:21.066Z</time>
      </trkpt>
      <trkpt lat="42.798794" lon="13.427169">
        <ele>357.629895</ele>
        <time>2021-05-10T17:27:22.327Z</time>
      </trkpt>
      <trkpt lat="42.798803" lon="13.427294">
        <ele>356.986981</ele>
        <time>2021-05-10T17:27:23.492Z</time>
      </trkpt>
      <trkpt lat="42.798693" lon="13.427359">
        <ele>356.150576</ele>
        <time>2021-05-10T17:27:24.994Z</time>
      </trkpt>
      <trkpt lat="42.798269" lon="13.426762">
        <ele>351.897615</ele>
        <time>2021-05-10T17:27:32.411Z</time>
      </trkpt>
      <trkpt lat="42.798095" lon="13.426703">
        <ele>350.646754</ele>
        <time>2021-05-10T17:27:34.610Z</time>
      </trkpt>
      <trkpt lat="42.798007" lon="13.426781">
        <ele>349.914435</ele>
        <time>2021-05-10T17:27:36.045Z</time>
      </trkpt>
      <trkpt lat="42.797756" lon="13.427476">
        <ele>345.949289</ele>
        <time>2021-05-10T17:27:44.149Z</time>
      </trkpt>
      <trkpt lat="42.797655" lon="13.427616">
        <ele>345.073070</ele>
        <time>2021-05-10T17:27:46.181Z</time>
      </trkpt>
      <trkpt lat="42.797223" lon="13.427510">
        <ele>342.560258</ele>
        <time>2021-05-10T17:27:52.253Z</time>
      </trkpt>
      <trkpt lat="42.796837" lon="13.427394">
        <ele>340.297457</ele>
        <time>2021-05-10T17:27:57.564Z</time>
      </trkpt>
      <trkpt lat="42.796740" lon="13.427365">
        <ele>339.728961</ele>
        <time>2021-05-10T17:27:58.850Z</time>
      </trkpt>
      <trkpt lat="42.796546" lon="13.427490">
        <ele>338.500509</ele>
        <time>2021-05-10T17:28:01.632Z</time>
      </trkpt>
      <trkpt lat="42.796364" lon="13.427817">
        <ele>336.776478</ele>
        <time>2021-05-10T17:28:05.449Z</time>
      </trkpt>
      <trkpt lat="42.796178" lon="13.427910">
        <ele>335.642291</ele>
        <time>2021-05-10T17:28:07.922Z</time>
      </trkpt>
      <trkpt lat="42.795623" lon="13.428766">
        <ele>327.963913</ele>
        <time>2021-05-10T17:28:18.068Z</time>
      </trkpt>
      <trkpt lat="42.794906" lon="13.429723">
        <ele>318.559078</ele>
        <time>2021-05-10T17:28:29.970Z</time>
      </trkpt>
      <trkpt lat="42.794825" lon="13.429950">
        <ele>318.057894</ele>
        <time>2021-05-10T17:28:32.242Z</time>
      </trkpt>
      <trkpt lat="42.794829" lon="13.430068">
        <ele>317.840051</ele>
        <time>2021-05-10T17:28:33.297Z</time>
      </trkpt>
      <trkpt lat="42.794972" lon="13.430500">
        <ele>316.966065</ele>
        <time>2021-05-10T17:28:37.744Z</time>
      </trkpt>
      <trkpt lat="42.794985" lon="13.430934">
        <ele>316.165035</ele>
        <time>2021-05-10T17:28:42.621Z</time>
      </trkpt>
      <trkpt lat="42.794844" lon="13.431020">
        <ele>315.776803</ele>
        <time>2021-05-10T17:28:44.803Z</time>
      </trkpt>
      <trkpt lat="42.794705" lon="13.430994">
        <ele>315.424194</ele>
        <time>2021-05-10T17:28:50.124Z</time>
      </trkpt>
      <trkpt lat="42.794578" lon="13.430947">
        <ele>315.093459</ele>
        <time>2021-05-10T17:28:52.052Z</time>
      </trkpt>
      <trkpt lat="42.794134" lon="13.430794">
        <ele>314.125371</ele>
        <time>2021-05-10T17:29:05.513Z</time>
      </trkpt>
      <trkpt lat="42.794098" lon="13.430797">
        <ele>314.383795</ele>
        <time>2021-05-10T17:29:08.352Z</time>
      </trkpt>
      <trkpt lat="42.794066" lon="13.430805">
        <ele>314.616904</ele>
        <time>2021-05-10T17:29:10.988Z</time>
      </trkpt>
      <trkpt lat="42.793783" lon="13.430964">
        <ele>316.810187</ele>
        <time>2021-05-10T17:29:22.004Z</time>
      </trkpt>
      <trkpt lat="42.793718" lon="13.430940">
        <ele>317.292709</ele>
        <time>2021-05-10T17:29:29.480Z</time>
      </trkpt>
      <trkpt lat="42.793540" lon="13.430944">
        <ele>318.568265</ele>
        <time>2021-05-10T17:29:38.669Z</time>
      </trkpt>
      <trkpt lat="42.793243" lon="13.431057">
        <ele>320.777673</ele>
        <time>2021-05-10T17:30:01.499Z</time>
      </trkpt>
      <trkpt lat="42.792985" lon="13.431333">
        <ele>323.127807</ele>
        <time>2021-05-10T17:30:27.345Z</time>
      </trkpt>
      <trkpt lat="42.792836" lon="13.431293">
        <ele>324.215921</ele>
        <time>2021-05-10T17:30:37.556Z</time>
      </trkpt>
      <trkpt lat="42.792770" lon="13.431188">
        <ele>324.942842</ele>
        <time>2021-05-10T17:30:47.938Z</time>
      </trkpt>
      <trkpt lat="42.792764" lon="13.431017">
        <ele>325.842960</ele>
        <time>2021-05-10T17:30:57.104Z</time>
      </trkpt>
      <trkpt lat="42.792979" lon="13.430468">
        <ele>328.865043</ele>
        <time>2021-05-10T17:31:32.508Z</time>
      </trkpt>
      <trkpt lat="42.793033" lon="13.430161">
        <ele>330.339596</ele>
        <time>2021-05-10T17:31:48.891Z</time>
      </trkpt>
      <trkpt lat="42.793053" lon="13.429793">
        <ele>332.063155</ele>
        <time>2021-05-10T17:32:04.453Z</time>
      </trkpt>
      <trkpt lat="42.792966" lon="13.429136">
        <ele>335.181432</ele>
        <time>2021-05-10T17:32:36.368Z</time>
      </trkpt>
      <trkpt lat="42.792974" lon="13.428827">
        <ele>336.625606</ele>
        <time>2021-05-10T17:32:47.822Z</time>
      </trkpt>
      <trkpt lat="42.792884" lon="13.428761">
        <ele>337.276145</ele>
        <time>2021-05-10T17:32:55.486Z</time>
      </trkpt>
      <trkpt lat="42.792852" lon="13.429010">
        <ele>338.390338</ele>
        <time>2021-05-10T17:33:01.814Z</time>
      </trkpt>
      <trkpt lat="42.792740" lon="13.429586">
        <ele>339.759328</ele>
        <time>2021-05-10T17:33:18.643Z</time>
      </trkpt>
      <trkpt lat="42.792726" lon="13.429632">
        <ele>339.873739</ele>
        <time>2021-05-10T17:33:20.398Z</time>
      </trkpt>
      <trkpt lat="42.792484" lon="13.430086">
        <ele>341.162911</ele>
        <time>2021-05-10T17:33:36.100Z</time>
      </trkpt>
      <trkpt lat="42.792439" lon="13.430244">
        <ele>341.552289</ele>
        <time>2021-05-10T17:33:39.400Z</time>
      </trkpt>
      <trkpt lat="42.792475" lon="13.430660">
        <ele>342.514649</ele>
        <time>2021-05-10T17:33:49.986Z</time>
      </trkpt>
      <trkpt lat="42.792436" lon="13.430866">
        <ele>343.003419</ele>
        <time>2021-05-10T17:33:54.324Z</time>
      </trkpt>
      <trkpt lat="42.792238" lon="13.431352">
        <ele>344.315633</ele>
        <time>2021-05-10T17:34:07.035Z</time>
      </trkpt>
      <trkpt lat="42.792213" lon="13.431590">
        <ele>344.927979</ele>
        <time>2021-05-10T17:34:12.616Z</time>
      </trkpt>
      <trkpt lat="42.792114" lon="13.431800">
        <ele>345.563693</ele>
        <time>2021-05-10T17:34:19.081Z</time>
      </trkpt>
      <trkpt lat="42.791992" lon="13.431929">
        <ele>346.099643</ele>
        <time>2021-05-10T17:34:24.414Z</time>
      </trkpt>
      <trkpt lat="42.791602" lon="13.432316">
        <ele>347.774085</ele>
        <time>2021-05-10T17:34:42.486Z</time>
      </trkpt>
      <trkpt lat="42.791815" lon="13.431869">
        <ele>349.131532</ele>
        <time>2021-05-10T17:34:58.454Z</time>
      </trkpt>
      <trkpt lat="42.792015" lon="13.431335">
        <ele>350.759207</ele>
        <time>2021-05-10T17:35:16.278Z</time>
      </trkpt>
      <trkpt lat="42.792015" lon="13.430319">
        <ele>353.915027</ele>
        <time>2021-05-10T17:35:48.003Z</time>
      </trkpt>
      <trkpt lat="42.792015" lon="13.430242">
        <ele>354.154199</ele>
        <time>2021-05-10T17:35:51.296Z</time>
      </trkpt>
      <trkpt lat="42.791967" lon="13.429455">
        <ele>356.607147</ele>
        <time>2021-05-10T17:36:13.882Z</time>
      </trkpt>
      <trkpt lat="42.791947" lon="13.428503">
        <ele>358.943547</ele>
        <time>2021-05-10T17:36:39.931Z</time>
      </trkpt>
      <trkpt lat="42.791931" lon="13.427770">
        <ele>360.413035</ele>
        <time>2021-05-10T17:36:56.951Z</time>
      </trkpt>
      <trkpt lat="42.791770" lon="13.427260">
        <ele>361.525565</ele>
        <time>2021-05-10T17:37:09.837Z</time>
      </trkpt>
      <trkpt lat="42.791200" lon="13.426679">
        <ele>363.437680</ele>
        <time>2021-05-10T17:37:31.387Z</time>
      </trkpt>
      <trkpt lat="42.790874" lon="13.426518">
        <ele>364.344312</ele>
        <time>2021-05-10T17:37:41.661Z</time>
      </trkpt>
      <trkpt lat="42.790819" lon="13.426511">
        <ele>364.488744</ele>
        <time>2021-05-10T17:37:43.519Z</time>
      </trkpt>
      <trkpt lat="42.790493" lon="13.426471">
        <ele>365.344573</ele>
        <time>2021-05-10T17:37:53.776Z</time>
      </trkpt>
      <trkpt lat="42.789972" lon="13.426483">
        <ele>366.707007</ele>
        <time>2021-05-10T17:38:11.245Z</time>
      </trkpt>
      <trkpt lat="42.789350" lon="13.426651">
        <ele>368.652009</ele>
        <time>2021-05-10T17:38:33.271Z</time>
      </trkpt>
      <trkpt lat="42.788844" lon="13.426787">
        <ele>370.413412</ele>
        <time>2021-05-10T17:38:52.194Z</time>
      </trkpt>
      <trkpt lat="42.787774" lon="13.427173">
        <ele>374.104635</ele>
        <time>2021-05-10T17:39:33.037Z</time>
      </trkpt>
      <trkpt lat="42.787702" lon="13.427195">
        <ele>374.320669</ele>
        <time>2021-05-10T17:39:36.609Z</time>
      </trkpt>
      <trkpt lat="42.787018" lon="13.427408">
        <ele>376.374885</ele>
        <time>2021-05-10T17:40:00.141Z</time>
      </trkpt>
      <trkpt lat="42.786674" lon="13.427308">
        <ele>377.404698</ele>
        <time>2021-05-10T17:40:11.536Z</time>
      </trkpt>
      <trkpt lat="42.786463" lon="13.427087">
        <ele>378.183870</ele>
        <time>2021-05-10T17:40:20.048Z</time>
      </trkpt>
      <trkpt lat="42.785612" lon="13.426161">
        <ele>380.963933</ele>
        <time>2021-05-10T17:40:54.614Z</time>
      </trkpt>
      <trkpt lat="42.785254" lon="13.425688">
        <ele>382.188784</ele>
        <time>2021-05-10T17:41:09.859Z</time>
      </trkpt>
      <trkpt lat="42.784900" lon="13.425490">
        <ele>383.128705</ele>
        <time>2021-05-10T17:41:21.496Z</time>
      </trkpt>
      <trkpt lat="42.784687" lon="13.425371">
        <ele>383.921165</ele>
        <time>2021-05-10T17:41:28.468Z</time>
      </trkpt>
      <trkpt lat="42.783588" lon="13.425387">
        <ele>388.013654</ele>
        <time>2021-05-10T17:42:06.999Z</time>
      </trkpt>
      <trkpt lat="42.783137" lon="13.425159">
        <ele>389.804873</ele>
        <time>2021-05-10T17:42:30.173Z</time>
      </trkpt>
      <trkpt lat="42.782847" lon="13.424829">
        <ele>391.182172</ele>
        <time>2021-05-10T17:42:48.275Z</time>
      </trkpt>
      <trkpt lat="42.782585" lon="13.424480">
        <ele>392.514463</ele>
        <time>2021-05-10T17:43:02.472Z</time>
      </trkpt>
      <trkpt lat="42.782541" lon="13.424422">
        <ele>392.737070</ele>
        <time>2021-05-10T17:43:04.379Z</time>
      </trkpt>
      <trkpt lat="42.782393" lon="13.424140">
        <ele>393.662248</ele>
        <time>2021-05-10T17:43:12.918Z</time>
      </trkpt>
      <trkpt lat="42.782298" lon="13.423901">
        <ele>394.387596</ele>
        <time>2021-05-10T17:43:17.248Z</time>
      </trkpt>
      <trkpt lat="42.782269" lon="13.423734">
        <ele>394.845570</ele>
        <time>2021-05-10T17:43:23.530Z</time>
      </trkpt>
      <trkpt lat="42.782258" lon="13.423622">
        <ele>395.147127</ele>
        <time>2021-05-10T17:43:26.491Z</time>
      </trkpt>
      <trkpt lat="42.782271" lon="13.423479">
        <ele>395.531665</ele>
        <time>2021-05-10T17:43:28.776Z</time>
      </trkpt>
      <trkpt lat="42.782322" lon="13.423312">
        <ele>396.014377</ele>
        <time>2021-05-10T17:43:34.419Z</time>
      </trkpt>
      <trkpt lat="42.782424" lon="13.423118">
        <ele>396.584839</ele>
        <time>2021-05-10T17:43:41.182Z</time>
      </trkpt>
      <trkpt lat="42.782488" lon="13.422995">
        <ele>396.819728</ele>
        <time>2021-05-10T17:43:43.723Z</time>
      </trkpt>
      <trkpt lat="42.782793" lon="13.422450">
        <ele>397.887440</ele>
        <time>2021-05-10T17:44:02.724Z</time>
      </trkpt>
      <trkpt lat="42.782836" lon="13.422365">
        <ele>398.048268</ele>
        <time>2021-05-10T17:44:04.569Z</time>
      </trkpt>
      <trkpt lat="42.782854" lon="13.422255">
        <ele>398.223842</ele>
        <time>2021-05-10T17:44:05.809Z</time>
      </trkpt>
      <trkpt lat="42.782846" lon="13.422056">
        <ele>398.534324</ele>
        <time>2021-05-10T17:44:10.260Z</time>
      </trkpt>
      <trkpt lat="42.782802" lon="13.421888">
        <ele>398.812212</ele>
        <time>2021-05-10T17:44:13.791Z</time>
      </trkpt>
      <trkpt lat="42.782549" lon="13.421246">
        <ele>399.947427</ele>
        <time>2021-05-10T17:44:22.983Z</time>
      </trkpt>
      <trkpt lat="42.781927" lon="13.419666">
        <ele>406.801697</ele>
        <time>2021-05-10T17:45:19.676Z</time>
      </trkpt>
      <trkpt lat="42.781778" lon="13.419289">
        <ele>408.583113</ele>
        <time>2021-05-10T17:45:38.075Z</time>
      </trkpt>
      <trkpt lat="42.781691" lon="13.419163">
        <ele>409.302837</ele>
        <time>2021-05-10T17:45:46.798Z</time>
      </trkpt>
      <trkpt lat="42.781617" lon="13.419114">
        <ele>409.769221</ele>
        <time>2021-05-10T17:45:51.744Z</time>
      </trkpt>
      <trkpt lat="42.781518" lon="13.419102">
        <ele>410.332620</ele>
        <time>2021-05-10T17:45:57.544Z</time>
      </trkpt>
      <trkpt lat="42.781456" lon="13.419139">
        <ele>410.811029</ele>
        <time>2021-05-10T17:46:00.977Z</time>
      </trkpt>
      <trkpt lat="42.781402" lon="13.419208">
        <ele>411.419004</ele>
        <time>2021-05-10T17:46:06.174Z</time>
      </trkpt>
      <trkpt lat="42.781235" lon="13.419492">
        <ele>413.612453</ele>
        <time>2021-05-10T17:46:22.319Z</time>
      </trkpt>
      <trkpt lat="42.781206" lon="13.419535">
        <ele>413.964440</ele>
        <time>2021-05-10T17:46:25.519Z</time>
      </trkpt>
      <trkpt lat="42.781085" lon="13.419582">
        <ele>414.997733</ele>
        <time>2021-05-10T17:46:34.397Z</time>
      </trkpt>
      <trkpt lat="42.780906" lon="13.419431">
        <ele>416.726702</ele>
        <time>2021-05-10T17:46:46.231Z</time>
      </trkpt>
      <trkpt lat="42.780874" lon="13.419352">
        <ele>417.270582</ele>
        <time>2021-05-10T17:46:51.004Z</time>
      </trkpt>
      <trkpt lat="42.780820" lon="13.419425">
        <ele>417.895301</ele>
        <time>2021-05-10T17:46:56.923Z</time>
      </trkpt>
      <trkpt lat="42.780712" lon="13.419417">
        <ele>418.783549</ele>
        <time>2021-05-10T17:47:03.010Z</time>
      </trkpt>
      <trkpt lat="42.780139" lon="13.418994">
        <ele>424.135596</ele>
        <time>2021-05-10T17:47:45.279Z</time>
      </trkpt>
      <trkpt lat="42.779590" lon="13.418740">
        <ele>426.966050</ele>
        <time>2021-05-10T17:48:12.530Z</time>
      </trkpt>
      <trkpt lat="42.779085" lon="13.418409">
        <ele>429.113778</ele>
        <time>2021-05-10T17:48:33.814Z</time>
      </trkpt>
      <trkpt lat="42.778921" lon="13.418217">
        <ele>429.942480</ele>
        <time>2021-05-10T17:48:40.586Z</time>
      </trkpt>
      <trkpt lat="42.778798" lon="13.417930">
        <ele>430.877353</ele>
        <time>2021-05-10T17:48:47.943Z</time>
      </trkpt>
      <trkpt lat="42.778640" lon="13.417562">
        <ele>432.076629</ele>
        <time>2021-05-10T17:48:56.623Z</time>
      </trkpt>
      <trkpt lat="42.778145" lon="13.416650">
        <ele>434.131642</ele>
        <time>2021-05-10T17:49:21.316Z</time>
      </trkpt>
      <trkpt lat="42.778003" lon="13.416473">
        <ele>434.598829</ele>
        <time>2021-05-10T17:49:27.143Z</time>
      </trkpt>
      <trkpt lat="42.777879" lon="13.416438">
        <ele>434.906219</ele>
        <time>2021-05-10T17:49:31.391Z</time>
      </trkpt>
      <trkpt lat="42.777766" lon="13.416644">
        <ele>435.364422</ele>
        <time>2021-05-10T17:49:37.563Z</time>
      </trkpt>
      <trkpt lat="42.777810" lon="13.416769">
        <ele>435.611420</ele>
        <time>2021-05-10T17:49:41.225Z</time>
      </trkpt>
      <trkpt lat="42.778083" lon="13.416968">
        <ele>436.362990</ele>
        <time>2021-05-10T17:49:51.431Z</time>
      </trkpt>
      <trkpt lat="42.778136" lon="13.417062">
        <ele>436.578194</ele>
        <time>2021-05-10T17:49:54.726Z</time>
      </trkpt>
      <trkpt lat="42.778242" lon="13.417376">
        <ele>437.258237</ele>
        <time>2021-05-10T17:50:02.742Z</time>
      </trkpt>
      <trkpt lat="42.778485" lon="13.417925">
        <ele>438.519669</ele>
        <time>2021-05-10T17:50:18.204Z</time>
      </trkpt>
      <trkpt lat="42.778511" lon="13.418113">
        <ele>438.896087</ele>
        <time>2021-05-10T17:50:22.808Z</time>
      </trkpt>
      <trkpt lat="42.778599" lon="13.418567">
        <ele>439.820003</ele>
        <time>2021-05-10T17:50:34.177Z</time>
      </trkpt>
      <trkpt lat="42.778653" lon="13.418595">
        <ele>439.974891</ele>
        <time>2021-05-10T17:50:35.818Z</time>
      </trkpt>
      <trkpt lat="42.779212" lon="13.419328">
        <ele>442.008532</ele>
        <time>2021-05-10T17:51:06.417Z</time>
      </trkpt>
      <trkpt lat="42.778653" lon="13.418595">
        <ele>443.950637</ele>
        <time>2021-05-10T17:51:35.267Z</time>
      </trkpt>
      <trkpt lat="42.778599" lon="13.418567">
        <ele>444.095269</ele>
        <time>2021-05-10T17:51:37.682Z</time>
      </trkpt>
      <trkpt lat="42.778720" lon="13.419003">
        <ele>444.951691</ele>
        <time>2021-05-10T17:51:47.603Z</time>
      </trkpt>
      <trkpt lat="42.778854" lon="13.419354">
        <ele>445.678607</ele>
        <time>2021-05-10T17:51:56.381Z</time>
      </trkpt>
      <trkpt lat="42.778985" lon="13.419674">
        <ele>446.249078</ele>
        <time>2021-05-10T17:52:05.404Z</time>
      </trkpt>
      <trkpt lat="42.779231" lon="13.420208">
        <ele>447.165589</ele>
        <time>2021-05-10T17:52:20.742Z</time>
      </trkpt>
      <trkpt lat="42.779455" lon="13.420487">
        <ele>447.766689</ele>
        <time>2021-05-10T17:52:31.370Z</time>
      </trkpt>
      <trkpt lat="42.779619" lon="13.420793">
        <ele>448.317488</ele>
        <time>2021-05-10T17:52:40.378Z</time>
      </trkpt>
      <trkpt lat="42.779825" lon="13.421168">
        <ele>448.998394</ele>
        <time>2021-05-10T17:52:50.334Z</time>
      </trkpt>
      <trkpt lat="42.779920" lon="13.421286">
        <ele>449.253005</ele>
        <time>2021-05-10T17:52:53.405Z</time>
      </trkpt>
      <trkpt lat="42.780033" lon="13.421331">
        <ele>449.338843</ele>
        <time>2021-05-10T17:52:55.372Z</time>
      </trkpt>
      <trkpt lat="42.780069" lon="13.421352">
        <ele>449.238021</ele>
        <time>2021-05-10T17:52:56.570Z</time>
      </trkpt>
      <trkpt lat="42.780115" lon="13.421376">
        <ele>449.111204</ele>
        <time>2021-05-10T17:52:57.686Z</time>
      </trkpt>
      <trkpt lat="42.780158" lon="13.421446">
        <ele>448.938714</ele>
        <time>2021-05-10T17:52:59.038Z</time>
      </trkpt>
      <trkpt lat="42.780161" lon="13.421521">
        <ele>448.796780</ele>
        <time>2021-05-10T17:53:00.095Z</time>
      </trkpt>
      <trkpt lat="42.780162" lon="13.421561">
        <ele>448.721150</ele>
        <time>2021-05-10T17:53:00.556Z</time>
      </trkpt>
      <trkpt lat="42.780113" lon="13.421661">
        <ele>448.493945</ele>
        <time>2021-05-10T17:53:01.752Z</time>
      </trkpt>
      <trkpt lat="42.780035" lon="13.421688">
        <ele>448.286748</ele>
        <time>2021-05-10T17:53:03.040Z</time>
      </trkpt>
      <trkpt lat="42.779904" lon="13.421662">
        <ele>447.945919</ele>
        <time>2021-05-10T17:53:05.456Z</time>
      </trkpt>
      <trkpt lat="42.779868" lon="13.422172">
        <ele>446.977748</ele>
        <time>2021-05-10T17:53:11.489Z</time>
      </trkpt>
      <trkpt lat="42.779880" lon="13.422485">
        <ele>446.385480</ele>
        <time>2021-05-10T17:53:14.880Z</time>
      </trkpt>
      <trkpt lat="42.779886" lon="13.422576">
        <ele>446.212829</ele>
        <time>2021-05-10T17:53:16.002Z</time>
      </trkpt>
      <trkpt lat="42.779899" lon="13.422767">
        <ele>445.850356</ele>
        <time>2021-05-10T17:53:18.108Z</time>
      </trkpt>
      <trkpt lat="42.779947" lon="13.422871">
        <ele>445.618206</ele>
        <time>2021-05-10T17:53:19.329Z</time>
      </trkpt>
      <trkpt lat="42.780049" lon="13.423127">
        <ele>445.067773</ele>
        <time>2021-05-10T17:53:22.805Z</time>
      </trkpt>
      <trkpt lat="42.780056" lon="13.423171">
        <ele>444.982697</ele>
        <time>2021-05-10T17:53:23.240Z</time>
      </trkpt>
      <trkpt lat="42.779982" lon="13.423307">
        <ele>444.582792</ele>
        <time>2021-05-10T17:53:25.409Z</time>
      </trkpt>
      <trkpt lat="42.779973" lon="13.424378">
        <ele>441.299742</ele>
        <time>2021-05-10T17:53:39.827Z</time>
      </trkpt>
      <trkpt lat="42.779889" lon="13.425022">
        <ele>439.294819</ele>
        <time>2021-05-10T17:53:48.646Z</time>
      </trkpt>
      <trkpt lat="42.779915" lon="13.425253">
        <ele>438.578479</ele>
        <time>2021-05-10T17:53:51.715Z</time>
      </trkpt>
      <trkpt lat="42.779820" lon="13.425811">
        <ele>437.095435</ele>
        <time>2021-05-10T17:54:01.212Z</time>
      </trkpt>
      <trkpt lat="42.779714" lon="13.426135">
        <ele>436.656818</ele>
        <time>2021-05-10T17:54:07.724Z</time>
      </trkpt>
      <trkpt lat="42.779672" lon="13.426707">
        <ele>435.946020</ele>
        <time>2021-05-10T17:54:18.235Z</time>
      </trkpt>
      <trkpt lat="42.779673" lon="13.426796">
        <ele>435.835960</ele>
        <time>2021-05-10T17:54:19.918Z</time>
      </trkpt>
      <trkpt lat="42.779765" lon="13.426948">
        <ele>435.592353</ele>
        <time>2021-05-10T17:54:23.106Z</time>
      </trkpt>
      <trkpt lat="42.779795" lon="13.427129">
        <ele>435.362914</ele>
        <time>2021-05-10T17:54:26.114Z</time>
      </trkpt>
      <trkpt lat="42.779485" lon="13.427105">
        <ele>434.839831</ele>
        <time>2021-05-10T17:54:32.368Z</time>
      </trkpt>
      <trkpt lat="42.779306" lon="13.427199">
        <ele>434.516654</ele>
        <time>2021-05-10T17:54:36.028Z</time>
      </trkpt>
      <trkpt lat="42.779122" lon="13.427406">
        <ele>434.070116</ele>
        <time>2021-05-10T17:54:41.367Z</time>
      </trkpt>
      <trkpt lat="42.779122" lon="13.427406">
        <ele>434.070116</ele>
        <time>2021-05-10T17:54:41.690Z</time>
      </trkpt>
      <trkpt lat="42.779122" lon="13.427406">
        <ele>434.070116</ele>
        <time>2021-05-10T17:54:41.724Z</time>
      </trkpt>
      <trkpt lat="42.779306" lon="13.427199">
        <ele>433.535586</ele>
        <time>2021-05-10T17:54:46.479Z</time>
      </trkpt>
      <trkpt lat="42.779485" lon="13.427105">
        <ele>433.105857</ele>
        <time>2021-05-10T17:54:50.497Z</time>
      </trkpt>
      <trkpt lat="42.779795" lon="13.427129">
        <ele>432.410310</ele>
        <time>2021-05-10T17:54:57.249Z</time>
      </trkpt>
      <trkpt lat="42.779855" lon="13.427224">
        <ele>432.204248</ele>
        <time>2021-05-10T17:54:59.405Z</time>
      </trkpt>
      <trkpt lat="42.780041" lon="13.427439">
        <ele>431.657843</ele>
        <time>2021-05-10T17:55:06.546Z</time>
      </trkpt>
      <trkpt lat="42.780214" lon="13.427843">
        <ele>430.888823</ele>
        <time>2021-05-10T17:55:15.429Z</time>
      </trkpt>
      <trkpt lat="42.780130" lon="13.428082">
        <ele>430.453143</ele>
        <time>2021-05-10T17:55:20.324Z</time>
      </trkpt>
      <trkpt lat="42.779964" lon="13.428310">
        <ele>430.723272</ele>
        <time>2021-05-10T17:55:27.119Z</time>
      </trkpt>
      <trkpt lat="42.779933" lon="13.428547">
        <ele>431.396419</ele>
        <time>2021-05-10T17:55:32.111Z</time>
      </trkpt>
      <trkpt lat="42.779728" lon="13.428779">
        <ele>432.411704</ele>
        <time>2021-05-10T17:55:40.533Z</time>
      </trkpt>
      <trkpt lat="42.779697" lon="13.429078">
        <ele>433.256080</ele>
        <time>2021-05-10T17:55:52.073Z</time>
      </trkpt>
      <trkpt lat="42.779931" lon="13.429733">
        <ele>435.293051</ele>
        <time>2021-05-10T17:56:24.889Z</time>
      </trkpt>
      <trkpt lat="42.780477" lon="13.429848">
        <ele>437.698473</ele>
        <time>2021-05-10T17:57:03.098Z</time>
      </trkpt>
      <trkpt lat="42.780200" lon="13.430370">
        <ele>441.166278</ele>
        <time>2021-05-10T17:57:38.673Z</time>
      </trkpt>
      <trkpt lat="42.780209" lon="13.430632">
        <ele>442.578332</ele>
        <time>2021-05-10T17:57:53.162Z</time>
      </trkpt>
      <trkpt lat="42.780353" lon="13.430904">
        <ele>444.383864</ele>
        <time>2021-05-10T17:58:11.447Z</time>
      </trkpt>
      <trkpt lat="42.780911" lon="13.431621">
        <ele>450.009867</ele>
        <time>2021-05-10T17:59:03.086Z</time>
      </trkpt>
      <trkpt lat="42.781098" lon="13.431798">
        <ele>450.903961</ele>
        <time>2021-05-10T17:59:16.426Z</time>
      </trkpt>
      <trkpt lat="42.781592" lon="13.431782">
        <ele>452.539134</ele>
        <time>2021-05-10T17:59:41.790Z</time>
      </trkpt>
      <trkpt lat="42.782519" lon="13.432019">
        <ele>455.660236</ele>
        <time>2021-05-10T18:00:21.196Z</time>
      </trkpt>
      <trkpt lat="42.782810" lon="13.431906">
        <ele>456.995738</ele>
        <time>2021-05-10T18:00:33.081Z</time>
      </trkpt>
      <trkpt lat="42.783128" lon="13.431911">
        <ele>458.841091</ele>
        <time>2021-05-10T18:00:47.392Z</time>
      </trkpt>
      <trkpt lat="42.783526" lon="13.432087">
        <ele>461.269114</ele>
        <time>2021-05-10T18:01:11.591Z</time>
      </trkpt>
      <trkpt lat="42.783943" lon="13.432368">
        <ele>463.968548</ele>
        <time>2021-05-10T18:01:41.076Z</time>
      </trkpt>
      <trkpt lat="42.784206" lon="13.432425">
        <ele>465.513819</ele>
        <time>2021-05-10T18:02:00.741Z</time>
      </trkpt>
      <trkpt lat="42.784419" lon="13.432948">
        <ele>469.506733</ele>
        <time>2021-05-10T18:02:34.512Z</time>
      </trkpt>
      <trkpt lat="42.784335" lon="13.432971">
        <ele>470.515028</ele>
        <time>2021-05-10T18:02:40.061Z</time>
      </trkpt>
      <trkpt lat="42.784257" lon="13.433067">
        <ele>471.751985</ele>
        <time>2021-05-10T18:02:51.684Z</time>
      </trkpt>
      <trkpt lat="42.784135" lon="13.433671">
        <ele>477.162650</ele>
        <time>2021-05-10T18:03:32.676Z</time>
      </trkpt>
      <trkpt lat="42.784006" lon="13.434013">
        <ele>480.483761</ele>
        <time>2021-05-10T18:04:01.174Z</time>
      </trkpt>
      <trkpt lat="42.783770" lon="13.433986">
        <ele>483.270842</ele>
        <time>2021-05-10T18:04:22.777Z</time>
      </trkpt>
      <trkpt lat="42.783671" lon="13.434029">
        <ele>484.493662</ele>
        <time>2021-05-10T18:04:35.467Z</time>
      </trkpt>
      <trkpt lat="42.783558" lon="13.434322">
        <ele>487.352429</ele>
        <time>2021-05-10T18:04:57.130Z</time>
      </trkpt>
      <trkpt lat="42.783347" lon="13.434679">
        <ele>491.687310</ele>
        <time>2021-05-10T18:05:30.087Z</time>
      </trkpt>
      <trkpt lat="42.782943" lon="13.434576">
        <ele>497.045268</ele>
        <time>2021-05-10T18:06:09.312Z</time>
      </trkpt>
      <trkpt lat="42.782791" lon="13.434622">
        <ele>499.075031</ele>
        <time>2021-05-10T18:06:24.913Z</time>
      </trkpt>
      <trkpt lat="42.782701" lon="13.434770">
        <ele>500.913934</ele>
        <time>2021-05-10T18:06:39.281Z</time>
      </trkpt>
      <trkpt lat="42.782657" lon="13.435349">
        <ele>506.483188</ele>
        <time>2021-05-10T18:07:22.485Z</time>
      </trkpt>
      <trkpt lat="42.782510" lon="13.435617">
        <ele>509.684266</ele>
        <time>2021-05-10T18:07:47.658Z</time>
      </trkpt>
      <trkpt lat="42.782346" lon="13.435796">
        <ele>512.147310</ele>
        <time>2021-05-10T18:08:04.969Z</time>
      </trkpt>
      <trkpt lat="42.782263" lon="13.435859">
        <ele>513.089559</ele>
        <time>2021-05-10T18:08:15.966Z</time>
      </trkpt>
      <trkpt lat="42.781895" lon="13.436317">
        <ele>518.032506</ele>
        <time>2021-05-10T18:08:57.792Z</time>
      </trkpt>
      <trkpt lat="42.781687" lon="13.436650">
        <ele>521.215292</ele>
        <time>2021-05-10T18:09:24.602Z</time>
      </trkpt>
      <trkpt lat="42.781711" lon="13.436588">
        <ele>521.725498</ele>
        <time>2021-05-10T18:09:27.062Z</time>
      </trkpt>
      <trkpt lat="42.781696" lon="13.436369">
        <ele>523.326479</ele>
        <time>2021-05-10T18:09:37.984Z</time>
      </trkpt>
      <trkpt lat="42.781574" lon="13.436209">
        <ele>525.005824</ele>
        <time>2021-05-10T18:09:49.271Z</time>
      </trkpt>
      <trkpt lat="42.780841" lon="13.436000">
        <ele>531.614429</ele>
        <time>2021-05-10T18:10:32.747Z</time>
      </trkpt>
      <trkpt lat="42.780380" lon="13.436031">
        <ele>535.065756</ele>
        <time>2021-05-10T18:10:59.625Z</time>
      </trkpt>
      <trkpt lat="42.779447" lon="13.436288">
        <ele>542.183425</ele>
        <time>2021-05-10T18:11:49.418Z</time>
      </trkpt>
      <trkpt lat="42.779344" lon="13.436309">
        <ele>543.002773</ele>
        <time>2021-05-10T18:11:56.582Z</time>
      </trkpt>
      <trkpt lat="42.779287" lon="13.436295">
        <ele>543.479136</ele>
        <time>2021-05-10T18:12:01.019Z</time>
      </trkpt>
      <trkpt lat="42.778866" lon="13.435997">
        <ele>547.381148</ele>
        <time>2021-05-10T18:12:27.822Z</time>
      </trkpt>
      <trkpt lat="42.777584" lon="13.435525">
        <ele>558.405631</ele>
        <time>2021-05-10T18:13:50.554Z</time>
      </trkpt>
      <trkpt lat="42.777384" lon="13.435560">
        <ele>560.241782</ele>
        <time>2021-05-10T18:14:00.605Z</time>
      </trkpt>
      <trkpt lat="42.776769" lon="13.435833">
        <ele>566.131703</ele>
        <time>2021-05-10T18:14:44.834Z</time>
      </trkpt>
      <trkpt lat="42.776351" lon="13.435678">
        <ele>570.076457</ele>
        <time>2021-05-10T18:15:11.250Z</time>
      </trkpt>
      <trkpt lat="42.776287" lon="13.435657">
        <ele>570.675902</ele>
        <time>2021-05-10T18:15:13.641Z</time>
      </trkpt>
      <trkpt lat="42.776306" lon="13.435736">
        <ele>571.231549</ele>
        <time>2021-05-10T18:15:21.477Z</time>
      </trkpt>
      <trkpt lat="42.776507" lon="13.436298">
        <ele>576.194321</ele>
        <time>2021-05-10T18:15:50.006Z</time>
      </trkpt>
      <trkpt lat="42.776499" lon="13.436358">
        <ele>576.791906</ele>
        <time>2021-05-10T18:15:54.924Z</time>
      </trkpt>
      <trkpt lat="42.776458" lon="13.436384">
        <ele>577.395669</ele>
        <time>2021-05-10T18:15:57.226Z</time>
      </trkpt>
      <trkpt lat="42.776422" lon="13.436379">
        <ele>577.878778</ele>
        <time>2021-05-10T18:15:59.119Z</time>
      </trkpt>
      <trkpt lat="42.776394" lon="13.436387">
        <ele>578.260724</ele>
        <time>2021-05-10T18:15:59.732Z</time>
      </trkpt>
      <trkpt lat="42.776211" lon="13.436075">
        <ele>582.174387</ele>
        <time>2021-05-10T18:16:26.188Z</time>
      </trkpt>
      <trkpt lat="42.776134" lon="13.436106">
        <ele>583.246323</ele>
        <time>2021-05-10T18:16:32.667Z</time>
      </trkpt>
      <trkpt lat="42.776140" lon="13.436170">
        <ele>583.878582</ele>
        <time>2021-05-10T18:16:35.932Z</time>
      </trkpt>
      <trkpt lat="42.776129" lon="13.436222">
        <ele>584.408893</ele>
        <time>2021-05-10T18:16:41.869Z</time>
      </trkpt>
      <trkpt lat="42.775976" lon="13.436300">
        <ele>586.589849</ele>
        <time>2021-05-10T18:16:59.409Z</time>
      </trkpt>
      <trkpt lat="42.775707" lon="13.436588">
        <ele>591.157393</ele>
        <time>2021-05-10T18:17:37.889Z</time>
      </trkpt>
      <trkpt lat="42.775667" lon="13.436794">
        <ele>593.245533</ele>
        <time>2021-05-10T18:17:51.862Z</time>
      </trkpt>
      <trkpt lat="42.775689" lon="13.437219">
        <ele>597.420671</ele>
        <time>2021-05-10T18:18:28.291Z</time>
      </trkpt>
      <trkpt lat="42.775609" lon="13.437498">
        <ele>600.536076</ele>
        <time>2021-05-10T18:18:49.079Z</time>
      </trkpt>
      <trkpt lat="42.775533" lon="13.437651">
        <ele>602.471136</ele>
        <time>2021-05-10T18:19:05.713Z</time>
      </trkpt>
      <trkpt lat="42.775450" lon="13.437790">
        <ele>604.347993</ele>
        <time>2021-05-10T18:19:17.610Z</time>
      </trkpt>
      <trkpt lat="42.775421" lon="13.437874">
        <ele>605.320307</ele>
        <time>2021-05-10T18:19:24.447Z</time>
      </trkpt>
      <trkpt lat="42.775530" lon="13.437951">
        <ele>607.072402</ele>
        <time>2021-05-10T18:19:38.068Z</time>
      </trkpt>
      <trkpt lat="42.775599" lon="13.438110">
        <ele>609.007125</ele>
        <time>2021-05-10T18:19:49.271Z</time>
      </trkpt>
      <trkpt lat="42.775652" lon="13.438318">
        <ele>611.313341</ele>
        <time>2021-05-10T18:20:04.761Z</time>
      </trkpt>
      <trkpt lat="42.775827" lon="13.438997">
        <ele>618.851132</ele>
        <time>2021-05-10T18:20:54.612Z</time>
      </trkpt>
      <trkpt lat="42.775862" lon="13.439204">
        <ele>621.076108</ele>
        <time>2021-05-10T18:21:09.249Z</time>
      </trkpt>
      <trkpt lat="42.775779" lon="13.439903">
        <ele>626.025169</ele>
        <time>2021-05-10T18:21:52.994Z</time>
      </trkpt>
      <trkpt lat="42.775789" lon="13.440489">
        <ele>629.185866</ele>
        <time>2021-05-10T18:22:18.749Z</time>
      </trkpt>
      <trkpt lat="42.775856" lon="13.440921">
        <ele>631.566736</ele>
        <time>2021-05-10T18:22:34.617Z</time>
      </trkpt>
      <trkpt lat="42.775913" lon="13.441007">
        <ele>632.191542</ele>
        <time>2021-05-10T18:22:39.799Z</time>
      </trkpt>
      <trkpt lat="42.775974" lon="13.441098">
        <ele>632.856062</ele>
        <time>2021-05-10T18:22:43.218Z</time>
      </trkpt>
      <trkpt lat="42.776135" lon="13.441142">
        <ele>634.062360</ele>
        <time>2021-05-10T18:22:49.416Z</time>
      </trkpt>
      <trkpt lat="42.776514" lon="13.441245">
        <ele>636.721005</ele>
        <time>2021-05-10T18:23:05.056Z</time>
      </trkpt>
      <trkpt lat="42.777852" lon="13.441756">
        <ele>640.383212</ele>
        <time>2021-05-10T18:23:52.298Z</time>
      </trkpt>
      <trkpt lat="42.778006" lon="13.441761">
        <ele>640.789192</ele>
        <time>2021-05-10T18:23:56.627Z</time>
      </trkpt>
      <trkpt lat="42.778697" lon="13.441524">
        <ele>642.819817</ele>
        <time>2021-05-10T18:24:16.490Z</time>
      </trkpt>
      <trkpt lat="42.778943" lon="13.441566">
        <ele>643.549562</ele>
        <time>2021-05-10T18:24:23.401Z</time>
      </trkpt>
      <trkpt lat="42.779098" lon="13.441744">
        <ele>644.146242</ele>
        <time>2021-05-10T18:24:29.204Z</time>
      </trkpt>
      <trkpt lat="42.779513" lon="13.443242">
        <ele>649.076047</ele>
        <time>2021-05-10T18:25:16.736Z</time>
      </trkpt>
      <trkpt lat="42.779610" lon="13.443728">
        <ele>651.847049</ele>
        <time>2021-05-10T18:25:35.653Z</time>
      </trkpt>
      <trkpt lat="42.779562" lon="13.443750">
        <ele>652.226671</ele>
        <time>2021-05-10T18:25:42.949Z</time>
      </trkpt>
      <trkpt lat="42.779297" lon="13.443525">
        <ele>654.567269</ele>
        <time>2021-05-10T18:26:14.523Z</time>
      </trkpt>
      <trkpt lat="42.778913" lon="13.442777">
        <ele>659.589446</ele>
        <time>2021-05-10T18:27:31.946Z</time>
      </trkpt>
      <trkpt lat="42.778811" lon="13.442856">
        <ele>660.584381</ele>
        <time>2021-05-10T18:27:47.896Z</time>
      </trkpt>
      <trkpt lat="42.778466" lon="13.443671">
        <ele>667.561732</ele>
        <time>2021-05-10T18:29:14.141Z</time>
      </trkpt>
      <trkpt lat="42.778181" lon="13.443944">
        <ele>671.081879</ele>
        <time>2021-05-10T18:29:57.057Z</time>
      </trkpt>
      <trkpt lat="42.778021" lon="13.444217">
        <ele>673.672758</ele>
        <time>2021-05-10T18:30:27.851Z</time>
      </trkpt>
      <trkpt lat="42.777859" lon="13.444338">
        <ele>675.539450</ele>
        <time>2021-05-10T18:30:49.912Z</time>
      </trkpt>
      <trkpt lat="42.777255" lon="13.444522">
        <ele>681.042616</ele>
        <time>2021-05-10T18:32:00.399Z</time>
      </trkpt>
      <trkpt lat="42.777132" lon="13.444851">
        <ele>683.190840</ele>
        <time>2021-05-10T18:32:29.989Z</time>
      </trkpt>
      <trkpt lat="42.777043" lon="13.444937">
        <ele>684.055761</ele>
        <time>2021-05-10T18:32:41.889Z</time>
      </trkpt>
      <trkpt lat="42.776344" lon="13.445535">
        <ele>690.598475</ele>
        <time>2021-05-10T18:34:09.137Z</time>
      </trkpt>
      <trkpt lat="42.776023" lon="13.445685">
        <ele>693.530481</ele>
        <time>2021-05-10T18:34:45.072Z</time>
      </trkpt>
      <trkpt lat="42.775295" lon="13.445732">
        <ele>701.248490</ele>
        <time>2021-05-10T18:36:07.138Z</time>
      </trkpt>
      <trkpt lat="42.774703" lon="13.445852">
        <ele>707.586651</ele>
        <time>2021-05-10T18:37:22.176Z</time>
      </trkpt>
      <trkpt lat="42.774327" lon="13.445791">
        <ele>711.596541</ele>
        <time>2021-05-10T18:38:14.142Z</time>
      </trkpt>
      <trkpt lat="42.774180" lon="13.445620">
        <ele>714.564423</ele>
        <time>2021-05-10T18:38:42.106Z</time>
      </trkpt>
      <trkpt lat="42.773736" lon="13.445747">
        <ele>721.550330</ele>
        <time>2021-05-10T18:39:49.220Z</time>
      </trkpt>
      <trkpt lat="42.773229" lon="13.445547">
        <ele>729.677963</ele>
        <time>2021-05-10T18:41:09.271Z</time>
      </trkpt>
      <trkpt lat="42.772829" lon="13.445526">
        <ele>735.841846</ele>
        <time>2021-05-10T18:42:09.950Z</time>
      </trkpt>
      <trkpt lat="42.772413" lon="13.445615">
        <ele>742.015186</ele>
        <time>2021-05-10T18:43:12.514Z</time>
      </trkpt>
      <trkpt lat="42.772249" lon="13.445747">
        <ele>744.645881</ele>
        <time>2021-05-10T18:43:40.384Z</time>
      </trkpt>
      <trkpt lat="42.771153" lon="13.445756">
        <ele>759.782427</ele>
        <time>2021-05-10T18:46:14.005Z</time>
      </trkpt>
      <trkpt lat="42.770137" lon="13.446170">
        <ele>772.798016</ele>
        <time>2021-05-10T18:48:27.088Z</time>
      </trkpt>
      <trkpt lat="42.769286" lon="13.446301">
        <ele>782.749387</ele>
        <time>2021-05-10T18:50:18.926Z</time>
      </trkpt>
      <trkpt lat="42.768763" lon="13.446297">
        <ele>788.372400</ele>
        <time>2021-05-10T18:51:23.547Z</time>
      </trkpt>
      <trkpt lat="42.768565" lon="13.446283">
        <ele>790.399023</ele>
        <time>2021-05-10T18:51:47.684Z</time>
      </trkpt>
      <trkpt lat="42.768415" lon="13.446290">
        <ele>791.933180</ele>
        <time>2021-05-10T18:52:05.694Z</time>
      </trkpt>
      <trkpt lat="42.768171" lon="13.446320">
        <ele>794.437417</ele>
        <time>2021-05-10T18:52:34.904Z</time>
      </trkpt>
      <trkpt lat="42.767587" lon="13.446576">
        <ele>800.708374</ele>
        <time>2021-05-10T18:53:48.464Z</time>
      </trkpt>
      <trkpt lat="42.766869" lon="13.446969">
        <ele>807.941745</ele>
        <time>2021-05-10T18:55:20.431Z</time>
      </trkpt>
      <trkpt lat="42.766674" lon="13.446960">
        <ele>809.675858</ele>
        <time>2021-05-10T18:55:41.675Z</time>
      </trkpt>
      <trkpt lat="42.766322" lon="13.447072">
        <ele>812.888574</ele>
        <time>2021-05-10T18:56:21.390Z</time>
      </trkpt>
      <trkpt lat="42.766124" lon="13.447076">
        <ele>814.648550</ele>
        <time>2021-05-10T18:56:43.376Z</time>
      </trkpt>
      <trkpt lat="42.765590" lon="13.446876">
        <ele>819.577905</ele>
        <time>2021-05-10T18:57:45.791Z</time>
      </trkpt>
      <trkpt lat="42.764567" lon="13.446737">
        <ele>829.155499</ele>
        <time>2021-05-10T18:59:45.493Z</time>
      </trkpt>
      <trkpt lat="42.764023" lon="13.446733">
        <ele>834.223492</ele>
        <time>2021-05-10T19:00:49.131Z</time>
      </trkpt>
      <trkpt lat="42.763244" lon="13.447109">
        <ele>843.614764</ele>
        <time>2021-05-10T19:02:25.589Z</time>
      </trkpt>
      <trkpt lat="42.761878" lon="13.446313">
        <ele>861.774196</ele>
        <time>2021-05-10T19:05:49.726Z</time>
      </trkpt>
      <trkpt lat="42.761624" lon="13.446165">
        <ele>865.325280</ele>
        <time>2021-05-10T19:06:29.082Z</time>
      </trkpt>
      <trkpt lat="42.760867" lon="13.445982">
        <ele>875.207731</ele>
        <time>2021-05-10T19:08:12.617Z</time>
      </trkpt>
      <trkpt lat="42.760694" lon="13.446188">
        <ele>878.161431</ele>
        <time>2021-05-10T19:08:43.528Z</time>
      </trkpt>
      <trkpt lat="42.760445" lon="13.446258">
        <ele>881.296092</ele>
        <time>2021-05-10T19:09:16.477Z</time>
      </trkpt>
      <trkpt lat="42.759915" lon="13.446530">
        <ele>886.366050</ele>
        <time>2021-05-10T19:10:25.563Z</time>
      </trkpt>
      <trkpt lat="42.759710" lon="13.446727">
        <ele>888.611905</ele>
        <time>2021-05-10T19:10:52.934Z</time>
      </trkpt>
      <trkpt lat="42.759413" lon="13.447149">
        <ele>892.453872</ele>
        <time>2021-05-10T19:11:40.599Z</time>
      </trkpt>
      <trkpt lat="42.759229" lon="13.447295">
        <ele>894.360092</ele>
        <time>2021-05-10T19:12:02.656Z</time>
      </trkpt>
      <trkpt lat="42.759161" lon="13.447488">
        <ele>895.767052</ele>
        <time>2021-05-10T19:12:20.002Z</time>
      </trkpt>
      <trkpt lat="42.758907" lon="13.447684">
        <ele>898.311305</ele>
        <time>2021-05-10T19:12:50.217Z</time>
      </trkpt>
      <trkpt lat="42.758874" lon="13.447732">
        <ele>898.720365</ele>
        <time>2021-05-10T19:12:55.229Z</time>
      </trkpt>
      <trkpt lat="42.758874" lon="13.447732">
        <ele>898.720365</ele>
        <time>2021-05-10T19:12:55.318Z</time>
      </trkpt>
      <trkpt lat="42.758874" lon="13.447732">
        <ele>898.720365</ele>
        <time>2021-05-10T19:12:55.326Z</time>
      </trkpt>
      <trkpt lat="42.758362" lon="13.448260">
        <ele>904.161491</ele>
        <time>2021-05-10T19:13:22.861Z</time>
      </trkpt>
      <trkpt lat="42.757850" lon="13.448789">
        <ele>909.606390</ele>
        <time>2021-05-10T19:13:50.489Z</time>
      </trkpt>
      <trkpt lat="42.757930" lon="13.449027">
        <ele>911.234712</ele>
        <time>2021-05-10T19:14:04.754Z</time>
      </trkpt>
      <trkpt lat="42.758034" lon="13.449722">
        <ele>915.206628</ele>
        <time>2021-05-10T19:14:42.870Z</time>
      </trkpt>
      <trkpt lat="42.758064" lon="13.449877">
        <ele>916.071401</ele>
        <time>2021-05-10T19:14:49.160Z</time>
      </trkpt>
      <trkpt lat="42.758104" lon="13.450087">
        <ele>917.241830</ele>
        <time>2021-05-10T19:15:03.159Z</time>
      </trkpt>
      <trkpt lat="42.757879" lon="13.450625">
        <ele>920.582101</ele>
        <time>2021-05-10T19:15:34.526Z</time>
      </trkpt>
      <trkpt lat="42.757879" lon="13.450625">
        <ele>920.582101</ele>
        <time>2021-05-10T19:15:34.722Z</time>
      </trkpt>
      <trkpt lat="42.757879" lon="13.450625">
        <ele>920.582101</ele>
        <time>2021-05-10T19:15:34.744Z</time>
      </trkpt>
      <trkpt lat="42.757879" lon="13.450625">
        <ele>920.582101</ele>
        <time>2021-05-10T19:15:34.748Z</time>
      </trkpt>
      <trkpt lat="42.757681" lon="13.451566">
        <ele>925.769403</ele>
        <time>2021-05-10T19:16:05.620Z</time>
      </trkpt>
      <trkpt lat="42.757482" lon="13.452507">
        <ele>929.493198</ele>
        <time>2021-05-10T19:16:36.493Z</time>
      </trkpt>
      <trkpt lat="42.757284" lon="13.453449">
        <ele>933.219228</ele>
        <time>2021-05-10T19:17:07.366Z</time>
      </trkpt>
      <trkpt lat="42.757086" lon="13.454390">
        <ele>936.109670</ele>
        <time>2021-05-10T19:17:38.195Z</time>
      </trkpt>
      <trkpt lat="42.757095" lon="13.454391">
        <ele>936.137736</ele>
        <time>2021-05-10T19:17:38.402Z</time>
      </trkpt>
      <trkpt lat="42.757245" lon="13.454488">
        <ele>936.653835</ele>
        <time>2021-05-10T19:17:45.714Z</time>
      </trkpt>
      <trkpt lat="42.757828" lon="13.454552">
        <ele>938.471738</ele>
        <time>2021-05-10T19:18:11.589Z</time>
      </trkpt>
      <trkpt lat="42.758088" lon="13.454649">
        <ele>939.309615</ele>
        <time>2021-05-10T19:18:24.556Z</time>
      </trkpt>
      <trkpt lat="42.758340" lon="13.454541">
        <ele>940.130719</ele>
        <time>2021-05-10T19:18:36.875Z</time>
      </trkpt>
      <trkpt lat="42.758608" lon="13.454314">
        <ele>941.857126</ele>
        <time>2021-05-10T19:18:52.349Z</time>
      </trkpt>
      <trkpt lat="42.758798" lon="13.454282">
        <ele>943.124139</ele>
        <time>2021-05-10T19:19:02.461Z</time>
      </trkpt>
      <trkpt lat="42.758978" lon="13.454434">
        <ele>944.525780</ele>
        <time>2021-05-10T19:19:14.696Z</time>
      </trkpt>
      <trkpt lat="42.759222" lon="13.454874">
        <ele>947.205084</ele>
        <time>2021-05-10T19:19:41.236Z</time>
      </trkpt>
      <trkpt lat="42.759758" lon="13.454981">
        <ele>950.790276</ele>
        <time>2021-05-10T19:20:20.854Z</time>
      </trkpt>
      <trkpt lat="42.759923" lon="13.455196">
        <ele>952.301504</ele>
        <time>2021-05-10T19:20:38.571Z</time>
      </trkpt>
      <trkpt lat="42.760073" lon="13.455561">
        <ele>954.554199</ele>
        <time>2021-05-10T19:21:02.747Z</time>
      </trkpt>
      <trkpt lat="42.759694" lon="13.456011">
        <ele>958.252028</ele>
        <time>2021-05-10T19:21:42.229Z</time>
      </trkpt>
      <trkpt lat="42.759490" lon="13.456387">
        <ele>960.776553</ele>
        <time>2021-05-10T19:22:07.790Z</time>
      </trkpt>
      <trkpt lat="42.759389" lon="13.456847">
        <ele>963.369158</ele>
        <time>2021-05-10T19:22:32.134Z</time>
      </trkpt>
      <trkpt lat="42.759458" lon="13.457288">
        <ele>965.587918</ele>
        <time>2021-05-10T19:22:49.703Z</time>
      </trkpt>
      <trkpt lat="42.759396" lon="13.457769">
        <ele>965.642675</ele>
        <time>2021-05-10T19:23:05.308Z</time>
      </trkpt>
      <trkpt lat="42.759253" lon="13.458382">
        <ele>965.714795</ele>
        <time>2021-05-10T19:23:20.297Z</time>
      </trkpt>
      <trkpt lat="42.759184" lon="13.458734">
        <ele>965.755646</ele>
        <time>2021-05-10T19:23:28.286Z</time>
      </trkpt>
      <trkpt lat="42.759166" lon="13.458958">
        <ele>965.780912</ele>
        <time>2021-05-10T19:23:32.435Z</time>
      </trkpt>
      <trkpt lat="42.759156" lon="13.459198">
        <ele>965.807866</ele>
        <time>2021-05-10T19:23:37.427Z</time>
      </trkpt>
      <trkpt lat="42.759343" lon="13.459381">
        <ele>965.843031</ele>
        <time>2021-05-10T19:23:43.221Z</time>
      </trkpt>
      <trkpt lat="42.759439" lon="13.459664">
        <ele>966.304570</ele>
        <time>2021-05-10T19:23:49.557Z</time>
      </trkpt>
      <trkpt lat="42.759513" lon="13.459736">
        <ele>966.615188</ele>
        <time>2021-05-10T19:23:52.072Z</time>
      </trkpt>
      <trkpt lat="42.759663" lon="13.459772">
        <ele>967.135412</ele>
        <time>2021-05-10T19:23:59.833Z</time>
      </trkpt>
      <trkpt lat="42.759955" lon="13.459703">
        <ele>968.147648</ele>
        <time>2021-05-10T19:24:08.722Z</time>
      </trkpt>
      <trkpt lat="42.760422" lon="13.459708">
        <ele>969.742754</ele>
        <time>2021-05-10T19:24:29.233Z</time>
      </trkpt>
      <trkpt lat="42.760530" lon="13.459719">
        <ele>970.112662</ele>
        <time>2021-05-10T19:24:32.226Z</time>
      </trkpt>
      <trkpt lat="42.760366" lon="13.459862">
        <ele>970.777763</ele>
        <time>2021-05-10T19:24:56.225Z</time>
      </trkpt>
      <trkpt lat="42.760246" lon="13.459899">
        <ele>971.197999</ele>
        <time>2021-05-10T19:25:06.290Z</time>
      </trkpt>
      <trkpt lat="42.760042" lon="13.460114">
        <ele>972.322729</ele>
        <time>2021-05-10T19:25:37.390Z</time>
      </trkpt>
      <trkpt lat="42.759861" lon="13.460158">
        <ele>974.921723</ele>
        <time>2021-05-10T19:25:57.772Z</time>
      </trkpt>
      <trkpt lat="42.759825" lon="13.460167">
        <ele>975.439110</ele>
        <time>2021-05-10T19:26:03.460Z</time>
      </trkpt>
      <trkpt lat="42.759755" lon="13.460241">
        <ele>976.691687</ele>
        <time>2021-05-10T19:26:16.438Z</time>
      </trkpt>
      <trkpt lat="42.759603" lon="13.460617">
        <ele>981.146435</ele>
        <time>2021-05-10T19:26:59.408Z</time>
      </trkpt>
      <trkpt lat="42.759336" lon="13.460973">
        <ele>986.428118</ele>
        <time>2021-05-10T19:27:55.634Z</time>
      </trkpt>
      <trkpt lat="42.759377" lon="13.461087">
        <ele>987.745601</ele>
        <time>2021-05-10T19:28:10.611Z</time>
      </trkpt>
      <trkpt lat="42.759790" lon="13.461385">
        <ele>994.352281</ele>
        <time>2021-05-10T19:29:20.048Z</time>
      </trkpt>
      <trkpt lat="42.759811" lon="13.461400">
        <ele>994.687476</ele>
        <time>2021-05-10T19:29:24.507Z</time>
      </trkpt>
      <trkpt lat="42.759850" lon="13.461521">
        <ele>996.058956</ele>
        <time>2021-05-10T19:29:39.066Z</time>
      </trkpt>
      <trkpt lat="42.759733" lon="13.461894">
        <ele>999.709731</ele>
        <time>2021-05-10T19:30:24.286Z</time>
      </trkpt>
      <trkpt lat="42.759594" lon="13.461992">
        <ele>1001.487156</ele>
        <time>2021-05-10T19:30:46.352Z</time>
      </trkpt>
      <trkpt lat="42.759457" lon="13.462222">
        <ele>1003.956539</ele>
        <time>2021-05-10T19:31:18.654Z</time>
      </trkpt>
      <trkpt lat="42.759177" lon="13.463094">
        <ele>1011.891909</ele>
        <time>2021-05-10T19:32:48.810Z</time>
      </trkpt>
      <trkpt lat="42.759050" lon="13.463343">
        <ele>1014.419781</ele>
        <time>2021-05-10T19:33:14.058Z</time>
      </trkpt>
      <trkpt lat="42.758428" lon="13.463788">
        <ele>1019.213400</ele>
        <time>2021-05-10T19:34:22.194Z</time>
      </trkpt>
      <trkpt lat="42.758245" lon="13.463908">
        <ele>1019.904134</ele>
        <time>2021-05-10T19:34:30.585Z</time>
      </trkpt>
      <trkpt lat="42.758120" lon="13.464164">
        <ele>1020.671816</ele>
        <time>2021-05-10T19:34:39.770Z</time>
      </trkpt>
      <trkpt lat="42.757394" lon="13.464498">
        <ele>1023.277899</ele>
        <time>2021-05-10T19:35:11.388Z</time>
      </trkpt>
      <trkpt lat="42.757025" lon="13.464700">
        <ele>1025.479356</ele>
        <time>2021-05-10T19:35:29.705Z</time>
      </trkpt>
      <trkpt lat="42.756898" lon="13.464777">
        <ele>1026.558737</ele>
        <time>2021-05-10T19:35:34.858Z</time>
      </trkpt>
      <trkpt lat="42.756791" lon="13.464874">
        <ele>1027.556748</ele>
        <time>2021-05-10T19:35:43.085Z</time>
      </trkpt>
      <trkpt lat="42.756685" lon="13.464970">
        <ele>1028.545138</ele>
        <time>2021-05-10T19:35:53.790Z</time>
      </trkpt>
      <trkpt lat="42.756626" lon="13.465086">
        <ele>1029.349623</ele>
        <time>2021-05-10T19:35:57.871Z</time>
      </trkpt>
      <trkpt lat="42.756583" lon="13.465171">
        <ele>1029.938090</ele>
        <time>2021-05-10T19:36:01.665Z</time>
      </trkpt>
      <trkpt lat="42.756658" lon="13.465387">
        <ele>1031.300258</ele>
        <time>2021-05-10T19:36:16.117Z</time>
      </trkpt>
      <trkpt lat="42.756809" lon="13.465912">
        <ele>1034.514722</ele>
        <time>2021-05-10T19:36:41.507Z</time>
      </trkpt>
      <trkpt lat="42.756901" lon="13.466044">
        <ele>1035.552299</ele>
        <time>2021-05-10T19:36:48.326Z</time>
      </trkpt>
      <trkpt lat="42.757189" lon="13.466220">
        <ele>1038.040683</ele>
        <time>2021-05-10T19:37:12.527Z</time>
      </trkpt>
      <trkpt lat="42.757363" lon="13.466304">
        <ele>1040.251221</ele>
        <time>2021-05-10T19:37:31.431Z</time>
      </trkpt>
      <trkpt lat="42.757604" lon="13.466422">
        <ele>1043.317834</ele>
        <time>2021-05-10T19:37:51.223Z</time>
      </trkpt>
      <trkpt lat="42.757746" lon="13.466693">
        <ele>1046.244941</ele>
        <time>2021-05-10T19:38:14.721Z</time>
      </trkpt>
      <trkpt lat="42.757835" lon="13.467056">
        <ele>1049.609621</ele>
        <time>2021-05-10T19:38:38.627Z</time>
      </trkpt>
      <trkpt lat="42.757817" lon="13.467285">
        <ele>1051.634461</ele>
        <time>2021-05-10T19:38:51.989Z</time>
      </trkpt>
      <trkpt lat="42.757333" lon="13.467720">
        <ele>1058.578158</ele>
        <time>2021-05-10T19:39:38.933Z</time>
      </trkpt>
      <trkpt lat="42.757199" lon="13.467944">
        <ele>1060.042657</ele>
        <time>2021-05-10T19:39:52.558Z</time>
      </trkpt>
      <trkpt lat="42.757019" lon="13.468699">
        <ele>1062.462582</ele>
        <time>2021-05-10T19:40:25.726Z</time>
      </trkpt>
      <trkpt lat="42.757052" lon="13.469026">
        <ele>1063.468820</ele>
        <time>2021-05-10T19:40:36.316Z</time>
      </trkpt>
      <trkpt lat="42.757720" lon="13.469769">
        <ele>1066.780042</ele>
        <time>2021-05-10T19:40:56.874Z</time>
      </trkpt>
      <trkpt lat="42.757963" lon="13.470644">
        <ele>1062.652616</ele>
        <time>2021-05-10T19:41:06.538Z</time>
      </trkpt>
      <trkpt lat="42.758502" lon="13.471228">
        <ele>1058.513888</ele>
        <time>2021-05-10T19:41:15.192Z</time>
      </trkpt>
      <trkpt lat="42.758694" lon="13.471302">
        <ele>1057.314851</ele>
        <time>2021-05-10T19:41:17.609Z</time>
      </trkpt>
      <trkpt lat="42.759729" lon="13.471260">
        <ele>1046.275516</ele>
        <time>2021-05-10T19:41:29.863Z</time>
      </trkpt>
      <trkpt lat="42.759772" lon="13.471303">
        <ele>1045.648497</ele>
        <time>2021-05-10T19:41:30.488Z</time>
      </trkpt>
      <trkpt lat="42.759749" lon="13.472016">
        <ele>1039.489483</ele>
        <time>2021-05-10T19:41:36.618Z</time>
      </trkpt>
      <trkpt lat="42.759799" lon="13.472322">
        <ele>1036.784146</ele>
        <time>2021-05-10T19:41:39.290Z</time>
      </trkpt>
      <trkpt lat="42.760088" lon="13.472882">
        <ele>1030.171137</ele>
        <time>2021-05-10T19:41:45.024Z</time>
      </trkpt>
      <trkpt lat="42.760909" lon="13.473978">
        <ele>1014.339950</ele>
        <time>2021-05-10T19:41:58.220Z</time>
      </trkpt>
      <trkpt lat="42.761068" lon="13.474169">
        <ele>1011.420405</ele>
        <time>2021-05-10T19:42:00.612Z</time>
      </trkpt>
      <trkpt lat="42.761092" lon="13.474190">
        <ele>1011.027573</ele>
        <time>2021-05-10T19:42:00.978Z</time>
      </trkpt>
      <trkpt lat="42.761499" lon="13.474507">
        <ele>1005.994135</ele>
        <time>2021-05-10T19:42:06.501Z</time>
      </trkpt>
      <trkpt lat="42.761530" lon="13.474571">
        <ele>1005.414187</ele>
        <time>2021-05-10T19:42:07.158Z</time>
      </trkpt>
      <trkpt lat="42.761579" lon="13.474673">
        <ele>1004.492194</ele>
        <time>2021-05-10T19:42:08.166Z</time>
      </trkpt>
      <trkpt lat="42.761652" lon="13.474892">
        <ele>1002.672978</ele>
        <time>2021-05-10T19:42:10.326Z</time>
      </trkpt>
      <trkpt lat="42.761764" lon="13.475105">
        <ele>1000.691303</ele>
        <time>2021-05-10T19:42:12.550Z</time>
      </trkpt>
      <trkpt lat="42.761890" lon="13.475403">
        <ele>998.090215</ele>
        <time>2021-05-10T19:42:15.691Z</time>
      </trkpt>
      <trkpt lat="42.761890" lon="13.475403">
        <ele>998.090215</ele>
        <time>2021-05-10T19:42:15.729Z</time>
      </trkpt>
      <trkpt lat="42.761890" lon="13.475403">
        <ele>998.090215</ele>
        <time>2021-05-10T19:42:16.169Z</time>
      </trkpt>
      <trkpt lat="42.761954" lon="13.475517">
        <ele>997.004737</ele>
        <time>2021-05-10T19:42:17.368Z</time>
      </trkpt>
      <trkpt lat="42.762173" lon="13.475697">
        <ele>994.369560</ele>
        <time>2021-05-10T19:42:20.672Z</time>
      </trkpt>
      <trkpt lat="42.762386" lon="13.475770">
        <ele>992.106755</ele>
        <time>2021-05-10T19:42:23.406Z</time>
      </trkpt>
      <trkpt lat="42.762726" lon="13.475855">
        <ele>989.809915</ele>
        <time>2021-05-10T19:42:27.719Z</time>
      </trkpt>
      <trkpt lat="42.763125" lon="13.476011">
        <ele>987.252707</ele>
        <time>2021-05-10T19:42:32.930Z</time>
      </trkpt>
      <trkpt lat="42.763496" lon="13.476113">
        <ele>984.921150</ele>
        <time>2021-05-10T19:42:37.789Z</time>
      </trkpt>
      <trkpt lat="42.764352" lon="13.476519">
        <ele>980.050286</ele>
        <time>2021-05-10T19:42:49.761Z</time>
      </trkpt>
      <trkpt lat="42.765553" lon="13.476638">
        <ele>976.786526</ele>
        <time>2021-05-10T19:43:07.505Z</time>
      </trkpt>
      <trkpt lat="42.765853" lon="13.476608">
        <ele>975.971226</ele>
        <time>2021-05-10T19:43:12.583Z</time>
      </trkpt>
      <trkpt lat="42.765949" lon="13.476474">
        <ele>975.643237</ele>
        <time>2021-05-10T19:43:15.066Z</time>
      </trkpt>
      <trkpt lat="42.765909" lon="13.476200">
        <ele>975.268593</ele>
        <time>2021-05-10T19:43:18.869Z</time>
      </trkpt>
      <trkpt lat="42.764759" lon="13.475351">
        <ele>972.879155</ele>
        <time>2021-05-10T19:43:40.831Z</time>
      </trkpt>
      <trkpt lat="42.764728" lon="13.475154">
        <ele>972.608961</ele>
        <time>2021-05-10T19:43:42.940Z</time>
      </trkpt>
      <trkpt lat="42.764779" lon="13.475017">
        <ele>972.248428</ele>
        <time>2021-05-10T19:43:44.523Z</time>
      </trkpt>
      <trkpt lat="42.764831" lon="13.474999">
        <ele>971.826604</ele>
        <time>2021-05-10T19:43:45.253Z</time>
      </trkpt>
      <trkpt lat="42.765475" lon="13.475370">
        <ele>966.329203</ele>
        <time>2021-05-10T19:43:54.278Z</time>
      </trkpt>
      <trkpt lat="42.766591" lon="13.475549">
        <ele>957.226188</ele>
        <time>2021-05-10T19:44:07.736Z</time>
      </trkpt>
      <trkpt lat="42.767127" lon="13.475810">
        <ele>951.276164</ele>
        <time>2021-05-10T19:44:14.392Z</time>
      </trkpt>
      <trkpt lat="42.768349" lon="13.475933">
        <ele>938.685939</ele>
        <time>2021-05-10T19:44:28.944Z</time>
      </trkpt>
      <trkpt lat="42.768905" lon="13.475897">
        <ele>934.088384</ele>
        <time>2021-05-10T19:44:35.764Z</time>
      </trkpt>
      <trkpt lat="42.769546" lon="13.476241">
        <ele>928.397894</ele>
        <time>2021-05-10T19:44:44.338Z</time>
      </trkpt>
      <trkpt lat="42.770796" lon="13.476243">
        <ele>917.462056</ele>
        <time>2021-05-10T19:44:59.877Z</time>
      </trkpt>
      <trkpt lat="42.770921" lon="13.476304">
        <ele>916.263440</ele>
        <time>2021-05-10T19:45:01.488Z</time>
      </trkpt>
      <trkpt lat="42.771853" lon="13.477124">
        <ele>905.538662</ele>
        <time>2021-05-10T19:45:14.728Z</time>
      </trkpt>
      <trkpt lat="42.772078" lon="13.477444">
        <ele>901.641125</ele>
        <time>2021-05-10T19:45:18.600Z</time>
      </trkpt>
      <trkpt lat="42.771964" lon="13.477471">
        <ele>900.254649</ele>
        <time>2021-05-10T19:45:20.960Z</time>
      </trkpt>
      <trkpt lat="42.771797" lon="13.477483">
        <ele>898.250819</ele>
        <time>2021-05-10T19:45:24.543Z</time>
      </trkpt>
      <trkpt lat="42.771394" lon="13.477297">
        <ele>893.152324</ele>
        <time>2021-05-10T19:45:33.392Z</time>
      </trkpt>
      <trkpt lat="42.771369" lon="13.477373">
        <ele>892.419789</ele>
        <time>2021-05-10T19:45:34.629Z</time>
      </trkpt>
      <trkpt lat="42.771770" lon="13.478101">
        <ele>883.803313</ele>
        <time>2021-05-10T19:45:48.355Z</time>
      </trkpt>
      <trkpt lat="42.771730" lon="13.478160">
        <ele>882.920654</ele>
        <time>2021-05-10T19:45:49.547Z</time>
      </trkpt>
      <trkpt lat="42.771552" lon="13.478178">
        <ele>880.248371</ele>
        <time>2021-05-10T19:45:53.189Z</time>
      </trkpt>
      <trkpt lat="42.771168" lon="13.478138">
        <ele>874.482482</ele>
        <time>2021-05-10T19:46:01.076Z</time>
      </trkpt>
      <trkpt lat="42.771118" lon="13.478233">
        <ele>873.197777</ele>
        <time>2021-05-10T19:46:02.823Z</time>
      </trkpt>
      <trkpt lat="42.772066" lon="13.479519">
        <ele>853.307910</ele>
        <time>2021-05-10T19:46:29.626Z</time>
      </trkpt>
      <trkpt lat="42.772914" lon="13.480252">
        <ele>838.583077</ele>
        <time>2021-05-10T19:46:49.963Z</time>
      </trkpt>
      <trkpt lat="42.773199" lon="13.480772">
        <ele>832.303262</ele>
        <time>2021-05-10T19:46:59.818Z</time>
      </trkpt>
      <trkpt lat="42.773300" lon="13.480854">
        <ele>831.197829</ele>
        <time>2021-05-10T19:47:02.282Z</time>
      </trkpt>
      <trkpt lat="42.773629" lon="13.481744">
        <ele>824.320683</ele>
        <time>2021-05-10T19:47:18.004Z</time>
      </trkpt>
      <trkpt lat="42.774205" lon="13.482286">
        <ele>817.738967</ele>
        <time>2021-05-10T19:47:33.794Z</time>
      </trkpt>
      <trkpt lat="42.774463" lon="13.482774">
        <ele>814.181348</ele>
        <time>2021-05-10T19:47:43.954Z</time>
      </trkpt>
      <trkpt lat="42.774900" lon="13.483329">
        <ele>809.651284</ele>
        <time>2021-05-10T19:47:57.706Z</time>
      </trkpt>
      <trkpt lat="42.776103" lon="13.483988">
        <ele>798.910153</ele>
        <time>2021-05-10T19:48:26.429Z</time>
      </trkpt>
      <trkpt lat="42.776384" lon="13.484457">
        <ele>794.581099</ele>
        <time>2021-05-10T19:48:35.872Z</time>
      </trkpt>
      <trkpt lat="42.776754" lon="13.484605">
        <ele>790.824460</ele>
        <time>2021-05-10T19:48:44.038Z</time>
      </trkpt>
      <trkpt lat="42.776643" lon="13.484798">
        <ele>789.071208</ele>
        <time>2021-05-10T19:48:47.854Z</time>
      </trkpt>
      <trkpt lat="42.776706" lon="13.485046">
        <ele>787.194659</ele>
        <time>2021-05-10T19:48:51.985Z</time>
      </trkpt>
      <trkpt lat="42.776966" lon="13.485401">
        <ele>784.664843</ele>
        <time>2021-05-10T19:48:59.984Z</time>
      </trkpt>
      <trkpt lat="42.777335" lon="13.485400">
        <ele>783.086343</ele>
        <time>2021-05-10T19:49:08.255Z</time>
      </trkpt>
      <trkpt lat="42.777504" lon="13.485346">
        <ele>782.343784</ele>
        <time>2021-05-10T19:49:12.311Z</time>
      </trkpt>
      <trkpt lat="42.777688" lon="13.485496">
        <ele>781.426525</ele>
        <time>2021-05-10T19:49:17.529Z</time>
      </trkpt>
      <trkpt lat="42.777708" lon="13.485640">
        <ele>780.966363</ele>
        <time>2021-05-10T19:49:20.208Z</time>
      </trkpt>
      <trkpt lat="42.777776" lon="13.485744">
        <ele>780.529044</ele>
        <time>2021-05-10T19:49:22.833Z</time>
      </trkpt>
      <trkpt lat="42.777932" lon="13.485745">
        <ele>779.861705</ele>
        <time>2021-05-10T19:49:27.070Z</time>
      </trkpt>
      <trkpt lat="42.778314" lon="13.486136">
        <ele>777.817812</ele>
        <time>2021-05-10T19:49:41.788Z</time>
      </trkpt>
      <trkpt lat="42.778690" lon="13.486868">
        <ele>777.788672</ele>
        <time>2021-05-10T19:50:11.239Z</time>
      </trkpt>
      <trkpt lat="42.779019" lon="13.487273">
        <ele>777.782646</ele>
        <time>2021-05-10T19:50:31.356Z</time>
      </trkpt>
      <trkpt lat="42.779746" lon="13.487727">
        <ele>776.157725</ele>
        <time>2021-05-10T19:50:54.178Z</time>
      </trkpt>
      <trkpt lat="42.780250" lon="13.487933">
        <ele>767.259408</ele>
        <time>2021-05-10T19:51:05.984Z</time>
      </trkpt>
      <trkpt lat="42.780508" lon="13.488220">
        <ele>761.626905</ele>
        <time>2021-05-10T19:51:12.963Z</time>
      </trkpt>
      <trkpt lat="42.780564" lon="13.488414">
        <ele>759.039469</ele>
        <time>2021-05-10T19:51:16.031Z</time>
      </trkpt>
      <trkpt lat="42.780527" lon="13.488652">
        <ele>756.019904</ele>
        <time>2021-05-10T19:51:19.582Z</time>
      </trkpt>
      <trkpt lat="42.780655" lon="13.489500">
        <ele>743.761620</ele>
        <time>2021-05-10T19:51:32.044Z</time>
      </trkpt>
      <trkpt lat="42.780621" lon="13.489747">
        <ele>738.376288</ele>
        <time>2021-05-10T19:51:35.643Z</time>
      </trkpt>
      <trkpt lat="42.780659" lon="13.489896">
        <ele>734.996047</ele>
        <time>2021-05-10T19:51:37.923Z</time>
      </trkpt>
      <trkpt lat="42.780654" lon="13.490209">
        <ele>728.287075</ele>
        <time>2021-05-10T19:51:42.456Z</time>
      </trkpt>
      <trkpt lat="42.780607" lon="13.490295">
        <ele>725.989369</ele>
        <time>2021-05-10T19:51:43.996Z</time>
      </trkpt>
      <trkpt lat="42.780602" lon="13.490421">
        <ele>723.285326</ele>
        <time>2021-05-10T19:51:45.903Z</time>
      </trkpt>
      <trkpt lat="42.780623" lon="13.490511">
        <ele>721.261569</ele>
        <time>2021-05-10T19:51:49.403Z</time>
      </trkpt>
      <trkpt lat="42.780789" lon="13.490844">
        <ele>712.635308</ele>
        <time>2021-05-10T19:52:03.617Z</time>
      </trkpt>
      <trkpt lat="42.780671" lon="13.491106">
        <ele>706.048045</ele>
        <time>2021-05-10T19:52:14.444Z</time>
      </trkpt>
      <trkpt lat="42.780727" lon="13.491474">
        <ele>697.994339</ele>
        <time>2021-05-10T19:52:27.892Z</time>
      </trkpt>
      <trkpt lat="42.781087" lon="13.491897">
        <ele>688.839680</ele>
        <time>2021-05-10T19:52:50.565Z</time>
      </trkpt>
      <trkpt lat="42.780993" lon="13.491984">
        <ele>686.983267</ele>
        <time>2021-05-10T19:52:56.172Z</time>
      </trkpt>
      <trkpt lat="42.781775" lon="13.492331">
        <ele>673.547804</ele>
        <time>2021-05-10T19:53:38.477Z</time>
      </trkpt>
      <trkpt lat="42.782030" lon="13.492241">
        <ele>669.244537</ele>
        <time>2021-05-10T19:53:52.736Z</time>
      </trkpt>
      <trkpt lat="42.782280" lon="13.492510">
        <ele>664.836623</ele>
        <time>2021-05-10T19:54:10.118Z</time>
      </trkpt>
      <trkpt lat="42.782262" lon="13.492879">
        <ele>662.892185</ele>
        <time>2021-05-10T19:54:24.951Z</time>
      </trkpt>
      <trkpt lat="42.782421" lon="13.493105">
        <ele>661.246138</ele>
        <time>2021-05-10T19:54:37.457Z</time>
      </trkpt>
      <trkpt lat="42.782496" lon="13.493418">
        <ele>659.514939</ele>
        <time>2021-05-10T19:54:51.183Z</time>
      </trkpt>
      <trkpt lat="42.782208" lon="13.494234">
        <ele>654.754209</ele>
        <time>2021-05-10T19:55:29.748Z</time>
      </trkpt>
      <trkpt lat="42.782193" lon="13.494316">
        <ele>654.309872</ele>
        <time>2021-05-10T19:55:33.136Z</time>
      </trkpt>
      <trkpt lat="42.782177" lon="13.494385">
        <ele>653.929402</ele>
        <time>2021-05-10T19:55:36.005Z</time>
      </trkpt>
      <trkpt lat="42.782138" lon="13.494678">
        <ele>652.420345</ele>
        <time>2021-05-10T19:55:49.449Z</time>
      </trkpt>
      <trkpt lat="42.782339" lon="13.495114">
        <ele>650.445340</ele>
        <time>2021-05-10T19:56:11.589Z</time>
      </trkpt>
      <trkpt lat="42.782442" lon="13.495557">
        <ele>648.662819</ele>
        <time>2021-05-10T19:56:31.493Z</time>
      </trkpt>
      <trkpt lat="42.782424" lon="13.495717">
        <ele>648.041911</ele>
        <time>2021-05-10T19:56:38.078Z</time>
      </trkpt>
      <trkpt lat="42.782287" lon="13.496047">
        <ele>646.587596</ele>
        <time>2021-05-10T19:56:54.742Z</time>
      </trkpt>
      <trkpt lat="42.782052" lon="13.496409">
        <ele>644.733767</ele>
        <time>2021-05-10T19:57:15.549Z</time>
      </trkpt>
      <trkpt lat="42.781962" lon="13.497358">
        <ele>641.834409</ele>
        <time>2021-05-10T19:57:58.102Z</time>
      </trkpt>
      <trkpt lat="42.781897" lon="13.497641">
        <ele>641.112779</ele>
        <time>2021-05-10T19:58:11.273Z</time>
      </trkpt>
      <trkpt lat="42.781968" lon="13.498063">
        <ele>640.059183</ele>
        <time>2021-05-10T19:58:30.515Z</time>
      </trkpt>
      <trkpt lat="42.781899" lon="13.498282">
        <ele>639.479205</ele>
        <time>2021-05-10T19:58:41.199Z</time>
      </trkpt>
      <trkpt lat="42.781791" lon="13.498358">
        <ele>639.076166</ele>
        <time>2021-05-10T19:58:48.716Z</time>
      </trkpt>
      <trkpt lat="42.781695" lon="13.498605">
        <ele>638.395998</ele>
        <time>2021-05-10T19:59:01.388Z</time>
      </trkpt>
      <trkpt lat="42.781232" lon="13.499059">
        <ele>637.823222</ele>
        <time>2021-05-10T19:59:38.157Z</time>
      </trkpt>
      <trkpt lat="42.781133" lon="13.499698">
        <ele>639.209636</ele>
        <time>2021-05-10T20:00:12.988Z</time>
      </trkpt>
      <trkpt lat="42.781598" lon="13.500225">
        <ele>640.959077</ele>
        <time>2021-05-10T20:01:06.519Z</time>
      </trkpt>
      <trkpt lat="42.781780" lon="13.500785">
        <ele>642.259219</ele>
        <time>2021-05-10T20:01:51.727Z</time>
      </trkpt>
      <trkpt lat="42.781698" lon="13.500819">
        <ele>642.572466</ele>
        <time>2021-05-10T20:02:00.822Z</time>
      </trkpt>
      <trkpt lat="42.782046" lon="13.501341">
        <ele>645.089502</ele>
        <time>2021-05-10T20:02:56.782Z</time>
      </trkpt>
      <trkpt lat="42.782079" lon="13.501719">
        <ele>646.448193</ele>
        <time>2021-05-10T20:03:26.169Z</time>
      </trkpt>
      <trkpt lat="42.782148" lon="13.501927">
        <ele>647.262909</ele>
        <time>2021-05-10T20:03:43.336Z</time>
      </trkpt>
      <trkpt lat="42.782366" lon="13.502168">
        <ele>648.628145</ele>
        <time>2021-05-10T20:04:10.416Z</time>
      </trkpt>
      <trkpt lat="42.782810" lon="13.502348">
        <ele>650.880927</ele>
        <time>2021-05-10T20:04:50.517Z</time>
      </trkpt>
      <trkpt lat="42.783081" lon="13.502673">
        <ele>649.396913</ele>
        <time>2021-05-10T20:05:15.944Z</time>
      </trkpt>
      <trkpt lat="42.783776" lon="13.503327">
        <ele>644.502919</ele>
        <time>2021-05-10T20:06:05.561Z</time>
      </trkpt>
      <trkpt lat="42.784219" lon="13.503551">
        <ele>641.765044</ele>
        <time>2021-05-10T20:06:30.910Z</time>
      </trkpt>
      <trkpt lat="42.784382" lon="13.503767">
        <ele>640.148107</ele>
        <time>2021-05-10T20:06:42.846Z</time>
      </trkpt>
      <trkpt lat="42.784341" lon="13.503849">
        <ele>639.288954</ele>
        <time>2021-05-10T20:06:46.636Z</time>
      </trkpt>
      <trkpt lat="42.784545" lon="13.503943">
        <ele>636.748196</ele>
        <time>2021-05-10T20:06:57.842Z</time>
      </trkpt>
      <trkpt lat="42.784578" lon="13.504019">
        <ele>635.983567</ele>
        <time>2021-05-10T20:07:01.203Z</time>
      </trkpt>
      <trkpt lat="42.785313" lon="13.503825">
        <ele>627.150608</ele>
        <time>2021-05-10T20:07:39.892Z</time>
      </trkpt>
      <trkpt lat="42.785725" lon="13.503940">
        <ele>622.188762</ele>
        <time>2021-05-10T20:08:01.640Z</time>
      </trkpt>
      <trkpt lat="42.786063" lon="13.503946">
        <ele>618.813354</ele>
        <time>2021-05-10T20:08:19.451Z</time>
      </trkpt>
      <trkpt lat="42.786334" lon="13.504144">
        <ele>616.875854</ele>
        <time>2021-05-10T20:08:36.056Z</time>
      </trkpt>
      <trkpt lat="42.786375" lon="13.504284">
        <ele>616.178838</ele>
        <time>2021-05-10T20:08:42.058Z</time>
      </trkpt>
      <trkpt lat="42.786229" lon="13.504265">
        <ele>615.254734</ele>
        <time>2021-05-10T20:08:50.327Z</time>
      </trkpt>
      <trkpt lat="42.786351" lon="13.504402">
        <ele>614.258628</ele>
        <time>2021-05-10T20:08:59.183Z</time>
      </trkpt>
      <trkpt lat="42.786700" lon="13.504477">
        <ele>612.032465</ele>
        <time>2021-05-10T20:09:19.796Z</time>
      </trkpt>
      <trkpt lat="42.786943" lon="13.504716">
        <ele>610.144178</ele>
        <time>2021-05-10T20:09:38.065Z</time>
      </trkpt>
      <trkpt lat="42.786977" lon="13.504798">
        <ele>609.708672</ele>
        <time>2021-05-10T20:09:42.218Z</time>
      </trkpt>
      <trkpt lat="42.786987" lon="13.505345">
        <ele>608.576578</ele>
        <time>2021-05-10T20:10:07.849Z</time>
      </trkpt>
      <trkpt lat="42.787168" lon="13.505601">
        <ele>609.221231</ele>
        <time>2021-05-10T20:10:25.661Z</time>
      </trkpt>
      <trkpt lat="42.787383" lon="13.505733">
        <ele>609.803952</ele>
        <time>2021-05-10T20:10:43.477Z</time>
      </trkpt>
      <trkpt lat="42.787469" lon="13.506118">
        <ele>610.533765</ele>
        <time>2021-05-10T20:11:07.929Z</time>
      </trkpt>
      <trkpt lat="42.787730" lon="13.506639">
        <ele>611.677725</ele>
        <time>2021-05-10T20:11:50.536Z</time>
      </trkpt>
      <trkpt lat="42.787830" lon="13.507222">
        <ele>612.999952</ele>
        <time>2021-05-10T20:12:33.882Z</time>
      </trkpt>
      <trkpt lat="42.787900" lon="13.507396">
        <ele>613.984888</ele>
        <time>2021-05-10T20:12:48.671Z</time>
      </trkpt>
      <trkpt lat="42.788238" lon="13.507887">
        <ele>617.326449</ele>
        <time>2021-05-10T20:13:38.948Z</time>
      </trkpt>
      <trkpt lat="42.788439" lon="13.508536">
        <ele>620.822962</ele>
        <time>2021-05-10T20:14:35.699Z</time>
      </trkpt>
      <trkpt lat="42.788740" lon="13.509106">
        <ele>624.308563</ele>
        <time>2021-05-10T20:15:29.961Z</time>
      </trkpt>
      <trkpt lat="42.788832" lon="13.509478">
        <ele>625.642843</ele>
        <time>2021-05-10T20:15:59.929Z</time>
      </trkpt>
      <trkpt lat="42.788858" lon="13.510062">
        <ele>627.328800</ele>
        <time>2021-05-10T20:16:40.227Z</time>
      </trkpt>
      <trkpt lat="42.788885" lon="13.510151">
        <ele>627.606314</ele>
        <time>2021-05-10T20:16:49.208Z</time>
      </trkpt>
      <trkpt lat="42.789000" lon="13.510195">
        <ele>628.075341</ele>
        <time>2021-05-10T20:16:52.967Z</time>
      </trkpt>
      <trkpt lat="42.789271" lon="13.510325">
        <ele>629.203474</ele>
        <time>2021-05-10T20:17:03.677Z</time>
      </trkpt>
      <trkpt lat="42.789483" lon="13.510502">
        <ele>630.179749</ele>
        <time>2021-05-10T20:17:09.812Z</time>
      </trkpt>
      <trkpt lat="42.789559" lon="13.510708">
        <ele>630.844148</ele>
        <time>2021-05-10T20:17:17.058Z</time>
      </trkpt>
      <trkpt lat="42.789563" lon="13.510922">
        <ele>631.461007</ele>
        <time>2021-05-10T20:17:20.135Z</time>
      </trkpt>
      <trkpt lat="42.789380" lon="13.511480">
        <ele>632.104579</ele>
        <time>2021-05-10T20:17:35.447Z</time>
      </trkpt>
      <trkpt lat="42.789436" lon="13.511668">
        <ele>632.211183</ele>
        <time>2021-05-10T20:17:38.775Z</time>
      </trkpt>
      <trkpt lat="42.789485" lon="13.511739">
        <ele>632.262391</ele>
        <time>2021-05-10T20:17:39.770Z</time>
      </trkpt>
      <trkpt lat="42.789517" lon="13.511776">
        <ele>632.292438</ele>
        <time>2021-05-10T20:17:41.672Z</time>
      </trkpt>
      <trkpt lat="42.789638" lon="13.511849">
        <ele>632.387179</ele>
        <time>2021-05-10T20:17:44.445Z</time>
      </trkpt>
      <trkpt lat="42.789852" lon="13.511862">
        <ele>632.540545</ele>
        <time>2021-05-10T20:17:48.284Z</time>
      </trkpt>
      <trkpt lat="42.790301" lon="13.511492">
        <ele>632.916217</ele>
        <time>2021-05-10T20:17:59.567Z</time>
      </trkpt>
      <trkpt lat="42.790593" lon="13.511348">
        <ele>633.138544</ele>
        <time>2021-05-10T20:18:06.543Z</time>
      </trkpt>
      <trkpt lat="42.790810" lon="13.511319">
        <ele>633.661134</ele>
        <time>2021-05-10T20:18:10.769Z</time>
      </trkpt>
      <trkpt lat="42.791131" lon="13.511435">
        <ele>634.473891</ele>
        <time>2021-05-10T20:18:22.695Z</time>
      </trkpt>
      <trkpt lat="42.791187" lon="13.511483">
        <ele>634.635801</ele>
        <time>2021-05-10T20:18:25.594Z</time>
      </trkpt>
      <trkpt lat="42.791429" lon="13.511687">
        <ele>635.332223</ele>
        <time>2021-05-10T20:18:34.846Z</time>
      </trkpt>
      <trkpt lat="42.791633" lon="13.511950">
        <ele>636.019508</ele>
        <time>2021-05-10T20:18:44.438Z</time>
      </trkpt>
      <trkpt lat="42.791827" lon="13.512159">
        <ele>636.624746</ele>
        <time>2021-05-10T20:18:53.577Z</time>
      </trkpt>
      <trkpt lat="42.792080" lon="13.512431">
        <ele>637.413424</ele>
        <time>2021-05-10T20:19:04.917Z</time>
      </trkpt>
      <trkpt lat="42.792283" lon="13.512484">
        <ele>637.981436</ele>
        <time>2021-05-10T20:19:11.204Z</time>
      </trkpt>
      <trkpt lat="42.792301" lon="13.512565">
        <ele>638.158676</ele>
        <time>2021-05-10T20:19:17.753Z</time>
      </trkpt>
      <trkpt lat="42.793060" lon="13.512895">
        <ele>640.432340</ele>
        <time>2021-05-10T20:20:24.904Z</time>
      </trkpt>
      <trkpt lat="42.793294" lon="13.512963">
        <ele>641.115161</ele>
        <time>2021-05-10T20:20:45.004Z</time>
      </trkpt>
      <trkpt lat="42.793792" lon="13.512940">
        <ele>642.537205</ele>
        <time>2021-05-10T20:21:27.667Z</time>
      </trkpt>
      <trkpt lat="42.794220" lon="13.513163">
        <ele>643.333879</ele>
        <time>2021-05-10T20:22:03.137Z</time>
      </trkpt>
      <trkpt lat="42.795090" lon="13.514190">
        <ele>645.180033</ele>
        <time>2021-05-10T20:23:31.117Z</time>
      </trkpt>
      <trkpt lat="42.795425" lon="13.514366">
        <ele>645.556992</ele>
        <time>2021-05-10T20:23:58.903Z</time>
      </trkpt>
      <trkpt lat="42.795742" lon="13.514445">
        <ele>645.540743</ele>
        <time>2021-05-10T20:24:23.117Z</time>
      </trkpt>
      <trkpt lat="42.795970" lon="13.514658">
        <ele>645.526805</ele>
        <time>2021-05-10T20:24:43.271Z</time>
      </trkpt>
      <trkpt lat="42.796468" lon="13.515749">
        <ele>645.479266</ele>
        <time>2021-05-10T20:25:46.633Z</time>
      </trkpt>
      <trkpt lat="42.797103" lon="13.515633">
        <ele>645.340964</ele>
        <time>2021-05-10T20:26:29.641Z</time>
      </trkpt>
      <trkpt lat="42.797486" lon="13.515490">
        <ele>645.237382</ele>
        <time>2021-05-10T20:26:55.873Z</time>
      </trkpt>
      <trkpt lat="42.797895" lon="13.515661">
        <ele>645.125792</ele>
        <time>2021-05-10T20:27:24.457Z</time>
      </trkpt>
      <trkpt lat="42.798297" lon="13.515647">
        <ele>645.020901</ele>
        <time>2021-05-10T20:27:52.645Z</time>
      </trkpt>
      <trkpt lat="42.798507" lon="13.515711">
        <ele>645.972706</ele>
        <time>2021-05-10T20:28:09.531Z</time>
      </trkpt>
      <trkpt lat="42.798610" lon="13.515770">
        <ele>646.707785</ele>
        <time>2021-05-10T20:28:18.301Z</time>
      </trkpt>
      <trkpt lat="42.798785" lon="13.516194">
        <ele>649.056226</ele>
        <time>2021-05-10T20:28:50.322Z</time>
      </trkpt>
      <trkpt lat="42.799249" lon="13.516366">
        <ele>652.219875</ele>
        <time>2021-05-10T20:29:41.283Z</time>
      </trkpt>
      <trkpt lat="42.799712" lon="13.516622">
        <ele>655.507176</ele>
        <time>2021-05-10T20:30:40.028Z</time>
      </trkpt>
      <trkpt lat="42.800123" lon="13.516969">
        <ele>659.095984</ele>
        <time>2021-05-10T20:31:39.634Z</time>
      </trkpt>
      <trkpt lat="42.800463" lon="13.517050">
        <ele>661.867263</ele>
        <time>2021-05-10T20:32:22.781Z</time>
      </trkpt>
      <trkpt lat="42.800733" lon="13.517355">
        <ele>664.682939</ele>
        <time>2021-05-10T20:33:05.087Z</time>
      </trkpt>
      <trkpt lat="42.800952" lon="13.517432">
        <ele>666.498875</ele>
        <time>2021-05-10T20:33:30.869Z</time>
      </trkpt>
      <trkpt lat="42.801054" lon="13.517593">
        <ele>667.751987</ele>
        <time>2021-05-10T20:33:47.982Z</time>
      </trkpt>
      <trkpt lat="42.801212" lon="13.518049">
        <ele>670.722791</ele>
        <time>2021-05-10T20:34:24.299Z</time>
      </trkpt>
      <trkpt lat="42.801588" lon="13.518444">
        <ele>669.749418</ele>
        <time>2021-05-10T20:35:01.281Z</time>
      </trkpt>
      <trkpt lat="42.801596" lon="13.518675">
        <ele>669.109765</ele>
        <time>2021-05-10T20:35:12.214Z</time>
      </trkpt>
      <trkpt lat="42.801375" lon="13.518735">
        <ele>668.260261</ele>
        <time>2021-05-10T20:35:26.131Z</time>
      </trkpt>
      <trkpt lat="42.801302" lon="13.518985">
        <ele>667.516014</ele>
        <time>2021-05-10T20:35:37.741Z</time>
      </trkpt>
      <trkpt lat="42.801425" lon="13.518966">
        <ele>667.049354</ele>
        <time>2021-05-10T20:35:44.825Z</time>
      </trkpt>
      <trkpt lat="42.801684" lon="13.519073">
        <ele>666.029094</ele>
        <time>2021-05-10T20:36:00.009Z</time>
      </trkpt>
      <trkpt lat="42.801818" lon="13.519064">
        <ele>665.523322</ele>
        <time>2021-05-10T20:36:07.387Z</time>
      </trkpt>
      <trkpt lat="42.802609" lon="13.518831">
        <ele>661.124112</ele>
        <time>2021-05-10T20:36:51.367Z</time>
      </trkpt>
      <trkpt lat="42.802806" lon="13.518950">
        <ele>659.770900</ele>
        <time>2021-05-10T20:37:03.203Z</time>
      </trkpt>
      <trkpt lat="42.803012" lon="13.519606">
        <ele>656.483118</ele>
        <time>2021-05-10T20:37:32.749Z</time>
      </trkpt>
      <trkpt lat="42.803081" lon="13.520230">
        <ele>653.575527</ele>
        <time>2021-05-10T20:38:01.003Z</time>
      </trkpt>
      <trkpt lat="42.803283" lon="13.521247">
        <ele>653.438775</ele>
        <time>2021-05-10T20:38:53.989Z</time>
      </trkpt>
      <trkpt lat="42.803333" lon="13.521389">
        <ele>653.477078</ele>
        <time>2021-05-10T20:39:02.911Z</time>
      </trkpt>
      <trkpt lat="42.803449" lon="13.521524">
        <ele>653.527635</ele>
        <time>2021-05-10T20:39:14.809Z</time>
      </trkpt>
      <trkpt lat="42.803606" lon="13.521550">
        <ele>653.580055</ele>
        <time>2021-05-10T20:39:27.371Z</time>
      </trkpt>
      <trkpt lat="42.803759" lon="13.521494">
        <ele>653.632564</ele>
        <time>2021-05-10T20:39:40.108Z</time>
      </trkpt>
      <trkpt lat="42.804135" lon="13.520979">
        <ele>653.688978</ele>
        <time>2021-05-10T20:40:22.438Z</time>
      </trkpt>
      <trkpt lat="42.804441" lon="13.520803">
        <ele>652.576201</ele>
        <time>2021-05-10T20:40:47.233Z</time>
      </trkpt>
      <trkpt lat="42.804748" lon="13.521016">
        <ele>651.422026</ele>
        <time>2021-05-10T20:41:10.728Z</time>
      </trkpt>
      <trkpt lat="42.805166" lon="13.522045">
        <ele>648.530795</ele>
        <time>2021-05-10T20:42:02.374Z</time>
      </trkpt>
      <trkpt lat="42.805271" lon="13.522225">
        <ele>647.965525</ele>
        <time>2021-05-10T20:42:11.805Z</time>
      </trkpt>
      <trkpt lat="42.805390" lon="13.522290">
        <ele>646.905989</ele>
        <time>2021-05-10T20:42:18.881Z</time>
      </trkpt>
      <trkpt lat="42.805617" lon="13.522194">
        <ele>643.985531</ele>
        <time>2021-05-10T20:42:31.726Z</time>
      </trkpt>
      <trkpt lat="42.805799" lon="13.521980">
        <ele>641.032056</ele>
        <time>2021-05-10T20:42:44.475Z</time>
      </trkpt>
      <trkpt lat="42.805991" lon="13.521545">
        <ele>636.455599</ele>
        <time>2021-05-10T20:43:03.831Z</time>
      </trkpt>
      <trkpt lat="42.806084" lon="13.521449">
        <ele>635.022129</ele>
        <time>2021-05-10T20:43:09.815Z</time>
      </trkpt>
      <trkpt lat="42.806791" lon="13.521657">
        <ele>626.134749</ele>
        <time>2021-05-10T20:43:46.256Z</time>
      </trkpt>
      <trkpt lat="42.807050" lon="13.522092">
        <ele>621.222576</ele>
        <time>2021-05-10T20:44:06.916Z</time>
      </trkpt>
      <trkpt lat="42.807345" lon="13.522185">
        <ele>617.614109</ele>
        <time>2021-05-10T20:44:22.406Z</time>
      </trkpt>
      <trkpt lat="42.807462" lon="13.522330">
        <ele>615.729587</ele>
        <time>2021-05-10T20:44:30.512Z</time>
      </trkpt>
      <trkpt lat="42.807914" lon="13.523128">
        <ele>606.915083</ele>
        <time>2021-05-10T20:45:09.461Z</time>
      </trkpt>
      <trkpt lat="42.808124" lon="13.523283">
        <ele>604.167902</ele>
        <time>2021-05-10T20:45:22.481Z</time>
      </trkpt>
      <trkpt lat="42.809239" lon="13.523717">
        <ele>598.537179</ele>
        <time>2021-05-10T20:46:30.692Z</time>
      </trkpt>
      <trkpt lat="42.809507" lon="13.524363">
        <ele>595.893413</ele>
        <time>2021-05-10T20:47:05.329Z</time>
      </trkpt>
      <trkpt lat="42.809585" lon="13.524724">
        <ele>594.836946</ele>
        <time>2021-05-10T20:47:22.955Z</time>
      </trkpt>
      <trkpt lat="42.809605" lon="13.525143">
        <ele>593.789001</ele>
        <time>2021-05-10T20:47:42.317Z</time>
      </trkpt>
      <trkpt lat="42.809598" lon="13.525236">
        <ele>593.555674</ele>
        <time>2021-05-10T20:47:46.613Z</time>
      </trkpt>
      <trkpt lat="42.809477" lon="13.525346">
        <ele>593.060879</ele>
        <time>2021-05-10T20:47:55.589Z</time>
      </trkpt>
      <trkpt lat="42.809599" lon="13.525586">
        <ele>592.332145</ele>
        <time>2021-05-10T20:48:08.659Z</time>
      </trkpt>
      <trkpt lat="42.809320" lon="13.525832">
        <ele>591.201716</ele>
        <time>2021-05-10T20:48:29.273Z</time>
      </trkpt>
      <trkpt lat="42.809231" lon="13.525853">
        <ele>590.894432</ele>
        <time>2021-05-10T20:48:35.132Z</time>
      </trkpt>
      <trkpt lat="42.809477" lon="13.525902">
        <ele>590.048644</ele>
        <time>2021-05-10T20:48:49.974Z</time>
      </trkpt>
      <trkpt lat="42.809697" lon="13.526109">
        <ele>589.000485</ele>
        <time>2021-05-10T20:49:06.151Z</time>
      </trkpt>
      <trkpt lat="42.809725" lon="13.526514">
        <ele>587.407142</ele>
        <time>2021-05-10T20:49:24.370Z</time>
      </trkpt>
      <trkpt lat="42.809708" lon="13.526661">
        <ele>586.824259</ele>
        <time>2021-05-10T20:49:30.296Z</time>
      </trkpt>
      <trkpt lat="42.809803" lon="13.526511">
        <ele>586.048083</ele>
        <time>2021-05-10T20:49:34.124Z</time>
      </trkpt>
      <trkpt lat="42.809930" lon="13.526220">
        <ele>584.721849</ele>
        <time>2021-05-10T20:49:39.851Z</time>
      </trkpt>
      <trkpt lat="42.810135" lon="13.525011">
        <ele>579.861589</ele>
        <time>2021-05-10T20:50:01.610Z</time>
      </trkpt>
      <trkpt lat="42.810226" lon="13.524821">
        <ele>578.676656</ele>
        <time>2021-05-10T20:50:05.323Z</time>
      </trkpt>
      <trkpt lat="42.810446" lon="13.524682">
        <ele>576.906810</ele>
        <time>2021-05-10T20:50:11.143Z</time>
      </trkpt>
      <trkpt lat="42.810771" lon="13.524684">
        <ele>574.534666</ele>
        <time>2021-05-10T20:50:18.474Z</time>
      </trkpt>
      <trkpt lat="42.810987" lon="13.524929">
        <ele>572.483711</ele>
        <time>2021-05-10T20:50:24.666Z</time>
      </trkpt>
      <trkpt lat="42.811308" lon="13.525039">
        <ele>570.067888</ele>
        <time>2021-05-10T20:50:31.932Z</time>
      </trkpt>
      <trkpt lat="42.811620" lon="13.525392">
        <ele>567.108451</ele>
        <time>2021-05-10T20:50:40.948Z</time>
      </trkpt>
      <trkpt lat="42.812024" lon="13.525043">
        <ele>564.317858</ele>
        <time>2021-05-10T20:50:51.991Z</time>
      </trkpt>
      <trkpt lat="42.812165" lon="13.525050">
        <ele>563.525746</ele>
        <time>2021-05-10T20:50:55.278Z</time>
      </trkpt>
      <trkpt lat="42.812416" lon="13.524792">
        <ele>561.760902</ele>
        <time>2021-05-10T20:51:02.729Z</time>
      </trkpt>
      <trkpt lat="42.812544" lon="13.524729">
        <ele>560.996893</ele>
        <time>2021-05-10T20:51:05.985Z</time>
      </trkpt>
      <trkpt lat="42.812925" lon="13.524967">
        <ele>558.644038</ele>
        <time>2021-05-10T20:51:15.900Z</time>
      </trkpt>
      <trkpt lat="42.813059" lon="13.525311">
        <ele>557.039974</ele>
        <time>2021-05-10T20:51:22.789Z</time>
      </trkpt>
      <trkpt lat="42.813404" lon="13.525599">
        <ele>555.443157</ele>
        <time>2021-05-10T20:51:33.030Z</time>
      </trkpt>
      <trkpt lat="42.813564" lon="13.525828">
        <ele>554.632723</ele>
        <time>2021-05-10T20:51:39.157Z</time>
      </trkpt>
      <trkpt lat="42.814137" lon="13.526250">
        <ele>552.357566</ele>
        <time>2021-05-10T20:51:56.161Z</time>
      </trkpt>
      <trkpt lat="42.814608" lon="13.526723">
        <ele>550.313915</ele>
        <time>2021-05-10T20:52:11.020Z</time>
      </trkpt>
      <trkpt lat="42.814776" lon="13.526841">
        <ele>549.685942</ele>
        <time>2021-05-10T20:52:15.623Z</time>
      </trkpt>
      <trkpt lat="42.815250" lon="13.526827">
        <ele>548.116228</ele>
        <time>2021-05-10T20:52:27.814Z</time>
      </trkpt>
      <trkpt lat="42.815412" lon="13.526899">
        <ele>547.552084</ele>
        <time>2021-05-10T20:52:31.928Z</time>
      </trkpt>
      <trkpt lat="42.815497" lon="13.526987">
        <ele>547.198706</ele>
        <time>2021-05-10T20:52:33.838Z</time>
      </trkpt>
      <trkpt lat="42.816367" lon="13.527311">
        <ele>544.245269</ele>
        <time>2021-05-10T20:52:47.579Z</time>
      </trkpt>
      <trkpt lat="42.816876" lon="13.527378">
        <ele>543.087872</ele>
        <time>2021-05-10T20:52:55.523Z</time>
      </trkpt>
      <trkpt lat="42.817253" lon="13.527422">
        <ele>542.231473</ele>
        <time>2021-05-10T20:53:02.023Z</time>
      </trkpt>
      <trkpt lat="42.817294" lon="13.527501">
        <ele>542.070807</ele>
        <time>2021-05-10T20:53:03.691Z</time>
      </trkpt>
      <trkpt lat="42.817653" lon="13.527652">
        <ele>541.220475</ele>
        <time>2021-05-10T20:53:14.260Z</time>
      </trkpt>
      <trkpt lat="42.817815" lon="13.527818">
        <ele>540.761790</ele>
        <time>2021-05-10T20:53:20.341Z</time>
      </trkpt>
      <trkpt lat="42.817876" lon="13.527992">
        <ele>540.441618</ele>
        <time>2021-05-10T20:53:23.940Z</time>
      </trkpt>
      <trkpt lat="42.817882" lon="13.528334">
        <ele>539.654310</ele>
        <time>2021-05-10T20:53:31.301Z</time>
      </trkpt>
      <trkpt lat="42.818609" lon="13.528514">
        <ele>536.993142</ele>
        <time>2021-05-10T20:53:50.846Z</time>
      </trkpt>
      <trkpt lat="42.818896" lon="13.528965">
        <ele>535.415815</ele>
        <time>2021-05-10T20:54:02.044Z</time>
      </trkpt>
      <trkpt lat="42.818930" lon="13.529171">
        <ele>534.858004</ele>
        <time>2021-05-10T20:54:05.818Z</time>
      </trkpt>
      <trkpt lat="42.818880" lon="13.529473">
        <ele>534.040119</ele>
        <time>2021-05-10T20:54:11.322Z</time>
      </trkpt>
      <trkpt lat="42.818721" lon="13.529812">
        <ele>531.771561</ele>
        <time>2021-05-10T20:54:18.296Z</time>
      </trkpt>
      <trkpt lat="42.817824" lon="13.530964">
        <ele>520.556881</ele>
        <time>2021-05-10T20:54:45.273Z</time>
      </trkpt>
      <trkpt lat="42.817876" lon="13.531214">
        <ele>518.822264</ele>
        <time>2021-05-10T20:54:49.333Z</time>
      </trkpt>
      <trkpt lat="42.818182" lon="13.531451">
        <ele>514.801813</ele>
        <time>2021-05-10T20:54:56.597Z</time>
      </trkpt>
      <trkpt lat="42.818276" lon="13.531616">
        <ele>512.766156</ele>
        <time>2021-05-10T20:54:59.689Z</time>
      </trkpt>
      <trkpt lat="42.818408" lon="13.531721">
        <ele>510.736068</ele>
        <time>2021-05-10T20:55:02.885Z</time>
      </trkpt>
      <trkpt lat="42.818453" lon="13.531973">
        <ele>508.208944</ele>
        <time>2021-05-10T20:55:06.748Z</time>
      </trkpt>
      <trkpt lat="42.819400" lon="13.532072">
        <ele>495.592420</ele>
        <time>2021-05-10T20:55:26.391Z</time>
      </trkpt>
      <trkpt lat="42.819437" lon="13.532131">
        <ele>494.836086</ele>
        <time>2021-05-10T20:55:27.529Z</time>
      </trkpt>
      <trkpt lat="42.819603" lon="13.532389">
        <ele>491.293720</ele>
        <time>2021-05-10T20:55:32.587Z</time>
      </trkpt>
      <trkpt lat="42.819671" lon="13.532339">
        <ele>490.166290</ele>
        <time>2021-05-10T20:55:34.176Z</time>
      </trkpt>
      <trkpt lat="42.819704" lon="13.532540">
        <ele>487.961604</ele>
        <time>2021-05-10T20:55:37.182Z</time>
      </trkpt>
      <trkpt lat="42.819856" lon="13.532885">
        <ele>483.653866</ele>
        <time>2021-05-10T20:55:43.264Z</time>
      </trkpt>
      <trkpt lat="42.819982" lon="13.533598">
        <ele>475.803764</ele>
        <time>2021-05-10T20:55:54.149Z</time>
      </trkpt>
      <trkpt lat="42.820147" lon="13.533772">
        <ele>472.759721</ele>
        <time>2021-05-10T20:55:58.493Z</time>
      </trkpt>
      <trkpt lat="42.820130" lon="13.533833">
        <ele>472.061258</ele>
        <time>2021-05-10T20:55:59.428Z</time>
      </trkpt>
      <trkpt lat="42.819886" lon="13.533607">
        <ele>467.756631</ele>
        <time>2021-05-10T20:56:05.642Z</time>
      </trkpt>
      <trkpt lat="42.819611" lon="13.532899">
        <ele>459.241063</ele>
        <time>2021-05-10T20:56:17.552Z</time>
      </trkpt>
      <trkpt lat="42.819532" lon="13.532899">
        <ele>458.096745</ele>
        <time>2021-05-10T20:56:19.182Z</time>
      </trkpt>
      <trkpt lat="42.819642" lon="13.534058">
        <ele>445.680013</ele>
        <time>2021-05-10T20:56:36.480Z</time>
      </trkpt>
      <trkpt lat="42.819824" lon="13.534852">
        <ele>436.860291</ele>
        <time>2021-05-10T20:56:49.164Z</time>
      </trkpt>
      <trkpt lat="42.819705" lon="13.535335">
        <ele>431.469911</ele>
        <time>2021-05-10T20:56:56.965Z</time>
      </trkpt>
      <trkpt lat="42.818832" lon="13.537362">
        <ele>406.999123</ele>
        <time>2021-05-10T20:57:31.841Z</time>
      </trkpt>
      <trkpt lat="42.818832" lon="13.537362">
        <ele>406.999123</ele>
        <time>2021-05-10T20:57:32.229Z</time>
      </trkpt>
      <trkpt lat="42.818832" lon="13.537362">
        <ele>406.999123</ele>
        <time>2021-05-10T20:57:32.272Z</time>
      </trkpt>
      <trkpt lat="42.818832" lon="13.537362">
        <ele>406.999123</ele>
        <time>2021-05-10T20:57:32.280Z</time>
      </trkpt>
      <trkpt lat="42.819257" lon="13.537657">
        <ele>400.435871</ele>
        <time>2021-05-10T20:57:52.792Z</time>
      </trkpt>
      <trkpt lat="42.818926" lon="13.538682">
        <ele>389.629763</ele>
        <time>2021-05-10T20:58:09.988Z</time>
      </trkpt>
      <trkpt lat="42.818895" lon="13.538929">
        <ele>388.015137</ele>
        <time>2021-05-10T20:58:13.719Z</time>
      </trkpt>
      <trkpt lat="42.818643" lon="13.539573">
        <ele>383.312101</ele>
        <time>2021-05-10T20:58:25.640Z</time>
      </trkpt>
      <trkpt lat="42.818454" lon="13.539937">
        <ele>380.438574</ele>
        <time>2021-05-10T20:58:33.389Z</time>
      </trkpt>
      <trkpt lat="42.818265" lon="13.540130">
        <ele>378.364250</ele>
        <time>2021-05-10T20:58:38.818Z</time>
      </trkpt>
      <trkpt lat="42.818250" lon="13.540603">
        <ele>375.313685</ele>
        <time>2021-05-10T20:58:46.601Z</time>
      </trkpt>
      <trkpt lat="42.818155" lon="13.540785">
        <ele>373.629440</ele>
        <time>2021-05-10T20:58:50.199Z</time>
      </trkpt>
      <trkpt lat="42.818132" lon="13.541278">
        <ele>369.514132</ele>
        <time>2021-05-10T20:58:58.018Z</time>
      </trkpt>
      <trkpt lat="42.818037" lon="13.541761">
        <ele>365.348282</ele>
        <time>2021-05-10T20:59:05.750Z</time>
      </trkpt>
      <trkpt lat="42.818242" lon="13.542995">
        <ele>354.807910</ele>
        <time>2021-05-10T20:59:25.034Z</time>
      </trkpt>
      <trkpt lat="42.818517" lon="13.543542">
        <ele>349.325838</ele>
        <time>2021-05-10T20:59:35.119Z</time>
      </trkpt>
      <trkpt lat="42.818690" lon="13.544165">
        <ele>343.823439</ele>
        <time>2021-05-10T20:59:45.327Z</time>
      </trkpt>
      <trkpt lat="42.818761" lon="13.544272">
        <ele>342.631643</ele>
        <time>2021-05-10T20:59:47.559Z</time>
      </trkpt>
      <trkpt lat="42.818832" lon="13.545194">
        <ele>334.974090</ele>
        <time>2021-05-10T21:00:02.074Z</time>
      </trkpt>
      <trkpt lat="42.819273" lon="13.545946">
        <ele>330.028022</ele>
        <time>2021-05-10T21:00:17.655Z</time>
      </trkpt>
      <trkpt lat="42.819406" lon="13.546546">
        <ele>327.072115</ele>
        <time>2021-05-10T21:00:28.468Z</time>
      </trkpt>
      <trkpt lat="42.819426" lon="13.546639">
        <ele>326.615078</ele>
        <time>2021-05-10T21:00:30.067Z</time>
      </trkpt>
      <trkpt lat="42.819561" lon="13.546751">
        <ele>325.599052</ele>
        <time>2021-05-10T21:00:33.902Z</time>
      </trkpt>
      <trkpt lat="42.819735" lon="13.546991">
        <ele>324.007683</ele>
        <time>2021-05-10T21:00:39.876Z</time>
      </trkpt>
      <trkpt lat="42.819824" lon="13.546932">
        <ele>323.371418</ele>
        <time>2021-05-10T21:00:42.404Z</time>
      </trkpt>
      <trkpt lat="42.820154" lon="13.546235">
        <ele>322.229001</ele>
        <time>2021-05-10T21:00:57.889Z</time>
      </trkpt>
      <trkpt lat="42.820524" lon="13.545999">
        <ele>322.023000</ele>
        <time>2021-05-10T21:01:09.505Z</time>
      </trkpt>
      <trkpt lat="42.821098" lon="13.546106">
        <ele>321.730840</ele>
        <time>2021-05-10T21:01:33.032Z</time>
      </trkpt>
      <trkpt lat="42.821287" lon="13.546203">
        <ele>321.628998</ele>
        <time>2021-05-10T21:01:40.972Z</time>
      </trkpt>
      <trkpt lat="42.821601" lon="13.546505">
        <ele>321.743818</ele>
        <time>2021-05-10T21:01:56.960Z</time>
      </trkpt>
      <trkpt lat="42.821785" lon="13.546691">
        <ele>321.919346</ele>
        <time>2021-05-10T21:02:06.158Z</time>
      </trkpt>
      <trkpt lat="42.822067" lon="13.547039">
        <ele>322.210818</ele>
        <time>2021-05-10T21:02:20.989Z</time>
      </trkpt>
      <trkpt lat="42.822145" lon="13.547147">
        <ele>322.296009</ele>
        <time>2021-05-10T21:02:25.186Z</time>
      </trkpt>
      <trkpt lat="42.823051" lon="13.548111">
        <ele>322.193310</ele>
        <time>2021-05-10T21:03:02.753Z</time>
      </trkpt>
      <trkpt lat="42.824254" lon="13.548241">
        <ele>319.339671</ele>
        <time>2021-05-10T21:03:34.080Z</time>
      </trkpt>
      <trkpt lat="42.824647" lon="13.548381">
        <ele>318.471534</ele>
        <time>2021-05-10T21:03:44.487Z</time>
      </trkpt>
      <trkpt lat="42.825055" lon="13.548872">
        <ele>317.576230</ele>
        <time>2021-05-10T21:03:58.551Z</time>
      </trkpt>
      <trkpt lat="42.825375" lon="13.549501">
        <ele>316.652541</ele>
        <time>2021-05-10T21:04:13.154Z</time>
      </trkpt>
      <trkpt lat="42.825639" lon="13.550580">
        <ele>317.372764</ele>
        <time>2021-05-10T21:04:42.550Z</time>
      </trkpt>
      <trkpt lat="42.825859" lon="13.550891">
        <ele>319.310925</ele>
        <time>2021-05-10T21:04:59.257Z</time>
      </trkpt>
      <trkpt lat="42.826001" lon="13.551299">
        <ele>321.336648</ele>
        <time>2021-05-10T21:05:18.547Z</time>
      </trkpt>
      <trkpt lat="42.825906" lon="13.551492">
        <ele>322.379262</ele>
        <time>2021-05-10T21:05:29.771Z</time>
      </trkpt>
      <trkpt lat="42.825718" lon="13.551814">
        <ele>324.225395</ele>
        <time>2021-05-10T21:05:48.636Z</time>
      </trkpt>
      <trkpt lat="42.825521" lon="13.552050">
        <ele>325.829228</ele>
        <time>2021-05-10T21:06:07.122Z</time>
      </trkpt>
      <trkpt lat="42.825725" lon="13.552511">
        <ele>329.566513</ele>
        <time>2021-05-10T21:06:37.265Z</time>
      </trkpt>
      <trkpt lat="42.825859" lon="13.552737">
        <ele>332.003839</ele>
        <time>2021-05-10T21:06:55.002Z</time>
      </trkpt>
      <trkpt lat="42.825945" lon="13.553048">
        <ele>334.791361</ele>
        <time>2021-05-10T21:07:16.859Z</time>
      </trkpt>
      <trkpt lat="42.825584" lon="13.554260">
        <ele>345.762417</ele>
        <time>2021-05-10T21:08:36.011Z</time>
      </trkpt>
      <trkpt lat="42.825765" lon="13.554550">
        <ele>348.047509</ele>
        <time>2021-05-10T21:08:54.606Z</time>
      </trkpt>
      <trkpt lat="42.825985" lon="13.554743">
        <ele>349.405900</ele>
        <time>2021-05-10T21:09:10.721Z</time>
      </trkpt>
      <trkpt lat="42.826024" lon="13.554883">
        <ele>349.976229</ele>
        <time>2021-05-10T21:09:17.350Z</time>
      </trkpt>
      <trkpt lat="42.825954" lon="13.555591">
        <ele>352.696915</ele>
        <time>2021-05-10T21:09:43.940Z</time>
      </trkpt>
      <trkpt lat="42.826032" lon="13.555709">
        <ele>353.301882</ele>
        <time>2021-05-10T21:09:48.763Z</time>
      </trkpt>
      <trkpt lat="42.826898" lon="13.555376">
        <ele>356.807154</ele>
        <time>2021-05-10T21:10:12.570Z</time>
      </trkpt>
      <trkpt lat="42.827142" lon="13.555183">
        <ele>356.998968</ele>
        <time>2021-05-10T21:10:17.747Z</time>
      </trkpt>
      <trkpt lat="42.827331" lon="13.554883">
        <ele>357.196199</ele>
        <time>2021-05-10T21:10:23.080Z</time>
      </trkpt>
      <trkpt lat="42.827700" lon="13.554668">
        <ele>357.469063</ele>
        <time>2021-05-10T21:10:30.689Z</time>
      </trkpt>
      <trkpt lat="42.827897" lon="13.554604">
        <ele>357.606769</ele>
        <time>2021-05-10T21:10:35.721Z</time>
      </trkpt>
      <trkpt lat="42.828078" lon="13.554668">
        <ele>357.733918</ele>
        <time>2021-05-10T21:10:39.484Z</time>
      </trkpt>
      <trkpt lat="42.828117" lon="13.554799">
        <ele>357.804425</ele>
        <time>2021-05-10T21:10:42.375Z</time>
      </trkpt>
      <trkpt lat="42.827807" lon="13.554962">
        <ele>359.191632</ele>
        <time>2021-05-10T21:10:53.071Z</time>
      </trkpt>
      <trkpt lat="42.827693" lon="13.555035">
        <ele>359.842418</ele>
        <time>2021-05-10T21:10:58.803Z</time>
      </trkpt>
      <trkpt lat="42.827471" lon="13.555176">
        <ele>361.107879</ele>
        <time>2021-05-10T21:11:08.568Z</time>
      </trkpt>
      <trkpt lat="42.827364" lon="13.555359">
        <ele>361.994803</ele>
        <time>2021-05-10T21:11:19.241Z</time>
      </trkpt>
      <trkpt lat="42.827526" lon="13.555611">
        <ele>363.264730</ele>
        <time>2021-05-10T21:11:32.911Z</time>
      </trkpt>
      <trkpt lat="42.827837" lon="13.555516">
        <ele>364.911560</ele>
        <time>2021-05-10T21:11:50.458Z</time>
      </trkpt>
      <trkpt lat="42.827867" lon="13.555524">
        <ele>365.069512</ele>
        <time>2021-05-10T21:11:53.432Z</time>
      </trkpt>
      <trkpt lat="42.828200" lon="13.555605">
        <ele>366.817351</ele>
        <time>2021-05-10T21:12:10.456Z</time>
      </trkpt>
      <trkpt lat="42.828541" lon="13.555658">
        <ele>367.587359</ele>
        <time>2021-05-10T21:12:24.712Z</time>
      </trkpt>
      <trkpt lat="42.828462" lon="13.555845">
        <ele>367.836284</ele>
        <time>2021-05-10T21:12:32.727Z</time>
      </trkpt>
      <trkpt lat="42.828473" lon="13.556040">
        <ele>368.061874</ele>
        <time>2021-05-10T21:12:36.287Z</time>
      </trkpt>
      <trkpt lat="42.828678" lon="13.556079">
        <ele>368.387417</ele>
        <time>2021-05-10T21:12:41.505Z</time>
      </trkpt>
      <trkpt lat="42.828740" lon="13.556127">
        <ele>368.499551</ele>
        <time>2021-05-10T21:12:45.517Z</time>
      </trkpt>
      <trkpt lat="42.828740" lon="13.556127">
        <ele>368.499551</ele>
        <time>2021-05-10T21:12:45.542Z</time>
      </trkpt>
      <trkpt lat="42.828869" lon="13.556096">
        <ele>368.705567</ele>
        <time>2021-05-10T21:12:47.514Z</time>
      </trkpt>
      <trkpt lat="42.828803" lon="13.555821">
        <ele>369.039321</ele>
        <time>2021-05-10T21:12:53.919Z</time>
      </trkpt>
      <trkpt lat="42.828541" lon="13.555658">
        <ele>369.492255</ele>
        <time>2021-05-10T21:12:59.360Z</time>
      </trkpt>
      <trkpt lat="42.828200" lon="13.555605">
        <ele>369.994168</ele>
        <time>2021-05-10T21:13:06.277Z</time>
      </trkpt>
      <trkpt lat="42.827867" lon="13.555524">
        <ele>370.158928</ele>
        <time>2021-05-10T21:13:12.278Z</time>
      </trkpt>
      <trkpt lat="42.827837" lon="13.555516">
        <ele>370.173818</ele>
        <time>2021-05-10T21:13:12.673Z</time>
      </trkpt>
      <trkpt lat="42.827526" lon="13.555611">
        <ele>370.329056</ele>
        <time>2021-05-10T21:13:18.547Z</time>
      </trkpt>
      <trkpt lat="42.827364" lon="13.555359">
        <ele>370.448766</ele>
        <time>2021-05-10T21:13:22.170Z</time>
      </trkpt>
      <trkpt lat="42.827319" lon="13.555435">
        <ele>370.483660</ele>
        <time>2021-05-10T21:13:27.446Z</time>
      </trkpt>
      <trkpt lat="42.827145" lon="13.555739">
        <ele>370.621416</ele>
        <time>2021-05-10T21:13:32.159Z</time>
      </trkpt>
      <trkpt lat="42.826993" lon="13.555887">
        <ele>370.712393</ele>
        <time>2021-05-10T21:13:38.785Z</time>
      </trkpt>
      <trkpt lat="42.826825" lon="13.555909">
        <ele>370.794600</ele>
        <time>2021-05-10T21:13:42.901Z</time>
      </trkpt>
      <trkpt lat="42.826364" lon="13.555805">
        <ele>372.061413</ele>
        <time>2021-05-10T21:14:04.235Z</time>
      </trkpt>
      <trkpt lat="42.826109" lon="13.556013">
        <ele>373.096526</ele>
        <time>2021-05-10T21:14:15.765Z</time>
      </trkpt>
      <trkpt lat="42.825957" lon="13.555909">
        <ele>373.688946</ele>
        <time>2021-05-10T21:14:23.856Z</time>
      </trkpt>
      <trkpt lat="42.825854" lon="13.555805">
        <ele>374.135418</ele>
        <time>2021-05-10T21:14:29.515Z</time>
      </trkpt>
      <trkpt lat="42.825560" lon="13.555480">
        <ele>375.453878</ele>
        <time>2021-05-10T21:14:42.227Z</time>
      </trkpt>
      <trkpt lat="42.825256" lon="13.555258">
        <ele>376.655188</ele>
        <time>2021-05-10T21:14:53.106Z</time>
      </trkpt>
      <trkpt lat="42.825083" lon="13.555198">
        <ele>377.386202</ele>
        <time>2021-05-10T21:14:57.461Z</time>
      </trkpt>
      <trkpt lat="42.824703" lon="13.555206">
        <ele>379.623796</ele>
        <time>2021-05-10T21:15:09.049Z</time>
      </trkpt>
      <trkpt lat="42.824247" lon="13.555465">
        <ele>382.532232</ele>
        <time>2021-05-10T21:15:30.215Z</time>
      </trkpt>
      <trkpt lat="42.823563" lon="13.555665">
        <ele>386.650989</ele>
        <time>2021-05-10T21:16:07.902Z</time>
      </trkpt>
      <trkpt lat="42.823268" lon="13.555686">
        <ele>388.768624</ele>
        <time>2021-05-10T21:16:31.013Z</time>
      </trkpt>
      <trkpt lat="42.822933" lon="13.555709">
        <ele>391.840010</ele>
        <time>2021-05-10T21:16:55.754Z</time>
      </trkpt>
      <trkpt lat="42.822233" lon="13.555791">
        <ele>398.273324</ele>
        <time>2021-05-10T21:17:45.138Z</time>
      </trkpt>
      <trkpt lat="42.822161" lon="13.555705">
        <ele>399.149830</ele>
        <time>2021-05-10T21:17:50.072Z</time>
      </trkpt>
      <trkpt lat="42.821872" lon="13.555611">
        <ele>401.870384</ele>
        <time>2021-05-10T21:18:11.804Z</time>
      </trkpt>
      <trkpt lat="42.821788" lon="13.555583">
        <ele>402.662202</ele>
        <time>2021-05-10T21:18:15.729Z</time>
      </trkpt>
      <trkpt lat="42.821625" lon="13.555139">
        <ele>404.643351</ele>
        <time>2021-05-10T21:18:36.100Z</time>
      </trkpt>
      <trkpt lat="42.821679" lon="13.554414">
        <ele>405.894804</ele>
        <time>2021-05-10T21:18:57.816Z</time>
      </trkpt>
      <trkpt lat="42.821440" lon="13.553637">
        <ele>407.341740</ele>
        <time>2021-05-10T21:19:14.806Z</time>
      </trkpt>
      <trkpt lat="42.821462" lon="13.553437">
        <ele>407.689044</ele>
        <time>2021-05-10T21:19:17.284Z</time>
      </trkpt>
      <trkpt lat="42.821608" lon="13.553011">
        <ele>408.171403</ele>
        <time>2021-05-10T21:19:22.789Z</time>
      </trkpt>
      <trkpt lat="42.821614" lon="13.552993">
        <ele>408.102122</ele>
        <time>2021-05-10T21:19:23.180Z</time>
      </trkpt>
      <trkpt lat="42.821864" lon="13.552209">
        <ele>405.106566</ele>
        <time>2021-05-10T21:19:32.164Z</time>
      </trkpt>
      <trkpt lat="42.821983" lon="13.552038">
        <ele>404.280599</ele>
        <time>2021-05-10T21:19:34.300Z</time>
      </trkpt>
      <trkpt lat="42.822058" lon="13.551984">
        <ele>403.875405</ele>
        <time>2021-05-10T21:19:35.561Z</time>
      </trkpt>
      <trkpt lat="42.822146" lon="13.551920">
        <ele>403.398927</ele>
        <time>2021-05-10T21:19:36.880Z</time>
      </trkpt>
      <trkpt lat="42.822314" lon="13.551764">
        <ele>402.427869</ele>
        <time>2021-05-10T21:19:39.331Z</time>
      </trkpt>
      <trkpt lat="42.822332" lon="13.551617">
        <ele>401.905651</ele>
        <time>2021-05-10T21:19:41.058Z</time>
      </trkpt>
      <trkpt lat="42.822644" lon="13.551541">
        <ele>400.391521</ele>
        <time>2021-05-10T21:20:03.127Z</time>
      </trkpt>
      <trkpt lat="42.822746" lon="13.551519">
        <ele>399.898174</ele>
        <time>2021-05-10T21:20:10.348Z</time>
      </trkpt>
      <trkpt lat="42.822748" lon="13.551561">
        <ele>399.777743</ele>
        <time>2021-05-10T21:20:12.504Z</time>
      </trkpt>
      <trkpt lat="42.822819" lon="13.551546">
        <ele>399.635473</ele>
        <time>2021-05-10T21:20:17.533Z</time>
      </trkpt>
      <trkpt lat="42.822895" lon="13.551529">
        <ele>399.482967</ele>
        <time>2021-05-10T21:20:22.903Z</time>
      </trkpt>
      <trkpt lat="42.822999" lon="13.551504">
        <ele>399.273853</ele>
        <time>2021-05-10T21:20:30.195Z</time>
      </trkpt>
      <trkpt lat="42.823047" lon="13.551501">
        <ele>399.178705</ele>
        <time>2021-05-10T21:20:33.562Z</time>
      </trkpt>
      <trkpt lat="42.823047" lon="13.551504">
        <ele>399.174348</ele>
        <time>2021-05-10T21:20:33.726Z</time>
      </trkpt>
      <trkpt lat="42.823130" lon="13.551531">
        <ele>399.005380</ele>
        <time>2021-05-10T21:20:39.649Z</time>
      </trkpt>
      <trkpt lat="42.823199" lon="13.551527">
        <ele>398.868624</ele>
        <time>2021-05-10T21:20:44.469Z</time>
      </trkpt>
      <trkpt lat="42.823223" lon="13.551524">
        <ele>398.820901</ele>
        <time>2021-05-10T21:20:46.180Z</time>
      </trkpt>
      <trkpt lat="42.823553" lon="13.551519">
        <ele>398.167403</ele>
        <time>2021-05-10T21:21:09.114Z</time>
      </trkpt>
      <trkpt lat="42.823603" lon="13.551597">
        <ele>398.016951</ele>
        <time>2021-05-10T21:21:14.388Z</time>
      </trkpt>
      <trkpt lat="42.823607" lon="13.551712">
        <ele>397.849742</ele>
        <time>2021-05-10T21:21:17.050Z</time>
      </trkpt>
      <trkpt lat="42.823755" lon="13.551703">
        <ele>397.556385</ele>
        <time>2021-05-10T21:21:23.275Z</time>
      </trkpt>
      <trkpt lat="42.823752" lon="13.551600">
        <ele>397.406674</ele>
        <time>2021-05-10T21:21:25.064Z</time>
      </trkpt>
      <trkpt lat="42.823747" lon="13.551464">
        <ele>397.208906</ele>
        <time>2021-05-10T21:21:27.847Z</time>
      </trkpt>
      <trkpt lat="42.823747" lon="13.551464">
        <ele>397.208906</ele>
        <time>2021-05-10T21:21:27.994Z</time>
      </trkpt>
      <trkpt lat="42.823747" lon="13.551464">
        <ele>397.208906</ele>
        <time>2021-05-10T21:21:28.013Z</time>
      </trkpt>
      <trkpt lat="42.823752" lon="13.551600">
        <ele>397.011138</ele>
        <time>2021-05-10T21:21:32.078Z</time>
      </trkpt>
      <trkpt lat="42.823755" lon="13.551703">
        <ele>396.861427</ele>
        <time>2021-05-10T21:21:36.668Z</time>
      </trkpt>
      <trkpt lat="42.823607" lon="13.551712">
        <ele>396.568070</ele>
        <time>2021-05-10T21:21:40.724Z</time>
      </trkpt>
      <trkpt lat="42.823603" lon="13.551597">
        <ele>396.400861</ele>
        <time>2021-05-10T21:21:43.457Z</time>
      </trkpt>
      <trkpt lat="42.823553" lon="13.551519">
        <ele>396.250409</ele>
        <time>2021-05-10T21:21:48.732Z</time>
      </trkpt>
      <trkpt lat="42.823223" lon="13.551524">
        <ele>397.883151</ele>
        <time>2021-05-10T21:22:11.666Z</time>
      </trkpt>
      <trkpt lat="42.823199" lon="13.551527">
        <ele>398.006348</ele>
        <time>2021-05-10T21:22:13.377Z</time>
      </trkpt>
      <trkpt lat="42.823130" lon="13.551531">
        <ele>398.359378</ele>
        <time>2021-05-10T21:22:18.197Z</time>
      </trkpt>
      <trkpt lat="42.823047" lon="13.551504">
        <ele>398.795564</ele>
        <time>2021-05-10T21:22:24.119Z</time>
      </trkpt>
      <trkpt lat="42.823047" lon="13.551501">
        <ele>398.806812</ele>
        <time>2021-05-10T21:22:24.284Z</time>
      </trkpt>
      <trkpt lat="42.822999" lon="13.551504">
        <ele>399.052434</ele>
        <time>2021-05-10T21:22:27.651Z</time>
      </trkpt>
      <trkpt lat="42.822895" lon="13.551529">
        <ele>399.592257</ele>
        <time>2021-05-10T21:22:34.943Z</time>
      </trkpt>
      <trkpt lat="42.822819" lon="13.551546">
        <ele>399.985945</ele>
        <time>2021-05-10T21:22:40.312Z</time>
      </trkpt>
      <trkpt lat="42.822748" lon="13.551561">
        <ele>400.353211</ele>
        <time>2021-05-10T21:22:45.342Z</time>
      </trkpt>
      <trkpt lat="42.822746" lon="13.551519">
        <ele>400.511012</ele>
        <time>2021-05-10T21:22:47.498Z</time>
      </trkpt>
      <trkpt lat="42.822644" lon="13.551541">
        <ele>401.038896</ele>
        <time>2021-05-10T21:22:54.718Z</time>
      </trkpt>
      <trkpt lat="42.822332" lon="13.551617">
        <ele>402.659021</ele>
        <time>2021-05-10T21:23:16.788Z</time>
      </trkpt>
      <trkpt lat="42.822314" lon="13.551764">
        <ele>403.217796</ele>
        <time>2021-05-10T21:23:19.840Z</time>
      </trkpt>
      <trkpt lat="42.822146" lon="13.551920">
        <ele>404.256831</ele>
        <time>2021-05-10T21:23:33.278Z</time>
      </trkpt>
      <trkpt lat="42.822058" lon="13.551984">
        <ele>404.766665</ele>
        <time>2021-05-10T21:23:37.951Z</time>
      </trkpt>
      <trkpt lat="42.821983" lon="13.552038">
        <ele>405.200224</ele>
        <time>2021-05-10T21:23:40.596Z</time>
      </trkpt>
      <trkpt lat="42.821864" lon="13.552209">
        <ele>405.617728</ele>
        <time>2021-05-10T21:23:50.861Z</time>
      </trkpt>
      <trkpt lat="42.821614" lon="13.552993">
        <ele>406.539510</ele>
        <time>2021-05-10T21:24:13.361Z</time>
      </trkpt>
      <trkpt lat="42.821608" lon="13.553011">
        <ele>406.560828</ele>
        <time>2021-05-10T21:24:13.601Z</time>
      </trkpt>
      <trkpt lat="42.821462" lon="13.553437">
        <ele>407.067835</ele>
        <time>2021-05-10T21:24:23.027Z</time>
      </trkpt>
      <trkpt lat="42.821440" lon="13.553637">
        <ele>407.285897</ele>
        <time>2021-05-10T21:24:26.701Z</time>
      </trkpt>
      <trkpt lat="42.821679" lon="13.554414">
        <ele>407.511481</ele>
        <time>2021-05-10T21:24:36.554Z</time>
      </trkpt>
      <trkpt lat="42.821625" lon="13.555139">
        <ele>403.854077</ele>
        <time>2021-05-10T21:24:43.902Z</time>
      </trkpt>
      <trkpt lat="42.821788" lon="13.555583">
        <ele>401.362152</ele>
        <time>2021-05-10T21:24:48.472Z</time>
      </trkpt>
      <trkpt lat="42.821872" lon="13.555611">
        <ele>400.770441</ele>
        <time>2021-05-10T21:24:49.611Z</time>
      </trkpt>
      <trkpt lat="42.822161" lon="13.555705">
        <ele>398.737425</ele>
        <time>2021-05-10T21:24:53.132Z</time>
      </trkpt>
      <trkpt lat="42.822233" lon="13.555791">
        <ele>398.082430</ele>
        <time>2021-05-10T21:24:54.354Z</time>
      </trkpt>
      <trkpt lat="42.822933" lon="13.555709">
        <ele>392.637764</ele>
        <time>2021-05-10T21:25:02.728Z</time>
      </trkpt>
      <trkpt lat="42.823268" lon="13.555686">
        <ele>389.755542</ele>
        <time>2021-05-10T21:25:06.688Z</time>
      </trkpt>
      <trkpt lat="42.823563" lon="13.555665">
        <ele>387.217225</ele>
        <time>2021-05-10T21:25:10.139Z</time>
      </trkpt>
      <trkpt lat="42.824247" lon="13.555465">
        <ele>381.206139</ele>
        <time>2021-05-10T21:25:18.971Z</time>
      </trkpt>
      <trkpt lat="42.824703" lon="13.555206">
        <ele>378.924084</ele>
        <time>2021-05-10T21:25:25.618Z</time>
      </trkpt>
      <trkpt lat="42.825083" lon="13.555198">
        <ele>377.571994</ele>
        <time>2021-05-10T21:25:31.382Z</time>
      </trkpt>
      <trkpt lat="42.825256" lon="13.555258">
        <ele>376.936910</ele>
        <time>2021-05-10T21:25:34.391Z</time>
      </trkpt>
      <trkpt lat="42.825560" lon="13.555480">
        <ele>375.710007</ele>
        <time>2021-05-10T21:25:39.564Z</time>
      </trkpt>
      <trkpt lat="42.825854" lon="13.555805">
        <ele>374.363458</ele>
        <time>2021-05-10T21:25:45.098Z</time>
      </trkpt>
      <trkpt lat="42.825957" lon="13.555909">
        <ele>373.909340</ele>
        <time>2021-05-10T21:25:46.807Z</time>
      </trkpt>
      <trkpt lat="42.826109" lon="13.556013">
        <ele>373.564426</ele>
        <time>2021-05-10T21:25:49.025Z</time>
      </trkpt>
      <trkpt lat="42.826364" lon="13.555805">
        <ele>372.961770</ele>
        <time>2021-05-10T21:25:53.153Z</time>
      </trkpt>
      <trkpt lat="42.826825" lon="13.555909">
        <ele>372.014089</ele>
        <time>2021-05-10T21:25:59.325Z</time>
      </trkpt>
      <trkpt lat="42.826993" lon="13.555887">
        <ele>371.671795</ele>
        <time>2021-05-10T21:26:02.164Z</time>
      </trkpt>
      <trkpt lat="42.827145" lon="13.555739">
        <ele>371.292985</ele>
        <time>2021-05-10T21:26:04.841Z</time>
      </trkpt>
      <trkpt lat="42.827319" lon="13.555435">
        <ele>370.719395</ele>
        <time>2021-05-10T21:26:12.497Z</time>
      </trkpt>
      <trkpt lat="42.827364" lon="13.555359">
        <ele>370.574106</ele>
        <time>2021-05-10T21:26:13.360Z</time>
      </trkpt>
      <trkpt lat="42.827526" lon="13.555611">
        <ele>370.996353</ele>
        <time>2021-05-10T21:26:22.588Z</time>
      </trkpt>
      <trkpt lat="42.827837" lon="13.555516">
        <ele>373.511017</ele>
        <time>2021-05-10T21:26:35.234Z</time>
      </trkpt>
      <trkpt lat="42.827867" lon="13.555524">
        <ele>373.752207</ele>
        <time>2021-05-10T21:26:38.201Z</time>
      </trkpt>
      <trkpt lat="42.828200" lon="13.555605">
        <ele>376.421111</ele>
        <time>2021-05-10T21:26:55.872Z</time>
      </trkpt>
      <trkpt lat="42.828541" lon="13.555658">
        <ele>379.129079</ele>
        <time>2021-05-10T21:27:17.125Z</time>
      </trkpt>
      <trkpt lat="42.828462" lon="13.555845">
        <ele>380.377859</ele>
        <time>2021-05-10T21:27:26.166Z</time>
      </trkpt>
      <trkpt lat="42.828473" lon="13.556040">
        <ele>381.509575</ele>
        <time>2021-05-10T21:27:38.515Z</time>
      </trkpt>
      <trkpt lat="42.828678" lon="13.556079">
        <ele>383.142726</ele>
        <time>2021-05-10T21:27:56.670Z</time>
      </trkpt>
      <trkpt lat="42.828740" lon="13.556127">
        <ele>383.705269</ele>
        <time>2021-05-10T21:28:03.607Z</time>
      </trkpt>
      <trkpt lat="42.828527" lon="13.556199">
        <ele>385.789168</ele>
        <time>2021-05-10T21:28:22.443Z</time>
      </trkpt>
      <trkpt lat="42.828367" lon="13.556308">
        <ele>387.707245</ele>
        <time>2021-05-10T21:28:38.325Z</time>
      </trkpt>
      <trkpt lat="42.827977" lon="13.556885">
        <ele>393.878643</ele>
        <time>2021-05-10T21:29:25.416Z</time>
      </trkpt>
      <trkpt lat="42.827692" lon="13.557183">
        <ele>397.730191</ele>
        <time>2021-05-10T21:29:51.161Z</time>
      </trkpt>
      <trkpt lat="42.827630" lon="13.557405">
        <ele>399.598531</ele>
        <time>2021-05-10T21:30:04.197Z</time>
      </trkpt>
      <trkpt lat="42.827744" lon="13.557470">
        <ele>400.923651</ele>
        <time>2021-05-10T21:30:12.441Z</time>
      </trkpt>
      <trkpt lat="42.828386" lon="13.557489">
        <ele>406.622972</ele>
        <time>2021-05-10T21:30:47.628Z</time>
      </trkpt>
      <trkpt lat="42.829232" lon="13.557161">
        <ele>413.301253</ele>
        <time>2021-05-10T21:31:37.160Z</time>
      </trkpt>
      <trkpt lat="42.829510" lon="13.557270">
        <ele>415.497633</ele>
        <time>2021-05-10T21:31:53.495Z</time>
      </trkpt>
      <trkpt lat="42.829658" lon="13.557511">
        <ele>417.248016</ele>
        <time>2021-05-10T21:32:08.596Z</time>
      </trkpt>
      <trkpt lat="42.829823" lon="13.557939">
        <ele>420.725724</ele>
        <time>2021-05-10T21:32:29.806Z</time>
      </trkpt>
      <trkpt lat="42.829787" lon="13.558078">
        <ele>421.800403</ele>
        <time>2021-05-10T21:32:35.359Z</time>
      </trkpt>
      <trkpt lat="42.829679" lon="13.558097">
        <ele>422.882893</ele>
        <time>2021-05-10T21:32:42.582Z</time>
      </trkpt>
      <trkpt lat="42.829138" lon="13.557967">
        <ele>428.343664</ele>
        <time>2021-05-10T21:33:21.243Z</time>
      </trkpt>
      <trkpt lat="42.829009" lon="13.558097">
        <ele>429.938226</ele>
        <time>2021-05-10T21:33:33.471Z</time>
      </trkpt>
      <trkpt lat="42.829025" lon="13.558265">
        <ele>431.173287</ele>
        <time>2021-05-10T21:33:44.421Z</time>
      </trkpt>
      <trkpt lat="42.829632" lon="13.558775">
        <ele>438.477966</ele>
        <time>2021-05-10T21:34:38.257Z</time>
      </trkpt>
      <trkpt lat="42.829882" lon="13.559193">
        <ele>442.696735</ele>
        <time>2021-05-10T21:35:10.092Z</time>
      </trkpt>
      <trkpt lat="42.830156" lon="13.559686">
        <ele>447.534938</ele>
        <time>2021-05-10T21:35:49.488Z</time>
      </trkpt>
      <trkpt lat="42.830552" lon="13.560168">
        <ele>453.196158</ele>
        <time>2021-05-10T21:36:31.690Z</time>
      </trkpt>
      <trkpt lat="42.830645" lon="13.560210">
        <ele>454.240996</ele>
        <time>2021-05-10T21:36:41.100Z</time>
      </trkpt>
      <trkpt lat="42.830781" lon="13.560273">
        <ele>455.450060</ele>
        <time>2021-05-10T21:36:52.775Z</time>
      </trkpt>
      <trkpt lat="42.831171" lon="13.560683">
        <ele>459.407173</ele>
        <time>2021-05-10T21:37:29.518Z</time>
      </trkpt>
      <trkpt lat="42.831052" lon="13.561022">
        <ele>461.621951</ele>
        <time>2021-05-10T21:37:49.716Z</time>
      </trkpt>
      <trkpt lat="42.831091" lon="13.561175">
        <ele>462.576485</ele>
        <time>2021-05-10T21:37:57.638Z</time>
      </trkpt>
      <trkpt lat="42.831245" lon="13.561253">
        <ele>463.896570</ele>
        <time>2021-05-10T21:38:09.122Z</time>
      </trkpt>
      <trkpt lat="42.831927" lon="13.561029">
        <ele>469.456281</ele>
        <time>2021-05-10T21:38:56.129Z</time>
      </trkpt>
      <trkpt lat="42.832372" lon="13.561243">
        <ele>472.772985</ele>
        <time>2021-05-10T21:39:27.222Z</time>
      </trkpt>
      <trkpt lat="42.832872" lon="13.561300">
        <ele>476.299727</ele>
        <time>2021-05-10T21:40:00.512Z</time>
      </trkpt>
      <trkpt lat="42.833101" lon="13.561406">
        <ele>477.999567</ele>
        <time>2021-05-10T21:40:17.134Z</time>
      </trkpt>
      <trkpt lat="42.833225" lon="13.561463">
        <ele>478.919349</ele>
        <time>2021-05-10T21:40:25.454Z</time>
      </trkpt>
      <trkpt lat="42.833442" lon="13.561487">
        <ele>480.449642</ele>
        <time>2021-05-10T21:40:40.210Z</time>
      </trkpt>
      <trkpt lat="42.833898" lon="13.561992">
        <ele>485.180928</ele>
        <time>2021-05-10T21:41:19.686Z</time>
      </trkpt>
      <trkpt lat="42.833998" lon="13.562233">
        <ele>486.892918</ele>
        <time>2021-05-10T21:41:34.154Z</time>
      </trkpt>
      <trkpt lat="42.833978" lon="13.562572">
        <ele>488.995587</ele>
        <time>2021-05-10T21:41:53.012Z</time>
      </trkpt>
      <trkpt lat="42.833893" lon="13.562904">
        <ele>491.169708</ele>
        <time>2021-05-10T21:42:12.533Z</time>
      </trkpt>
      <trkpt lat="42.833724" lon="13.563111">
        <ele>493.084909</ele>
        <time>2021-05-10T21:42:29.417Z</time>
      </trkpt>
      <trkpt lat="42.833898" lon="13.563942">
        <ele>499.000769</ele>
        <time>2021-05-10T21:43:18.766Z</time>
      </trkpt>
      <trkpt lat="42.833966" lon="13.564101">
        <ele>500.521168</ele>
        <time>2021-05-10T21:43:29.670Z</time>
      </trkpt>
      <trkpt lat="42.834075" lon="13.564070">
        <ele>501.775358</ele>
        <time>2021-05-10T21:43:38.991Z</time>
      </trkpt>
      <trkpt lat="42.834286" lon="13.563725">
        <ele>505.486118</ele>
        <time>2021-05-10T21:44:09.011Z</time>
      </trkpt>
      <trkpt lat="42.834432" lon="13.563763">
        <ele>507.160344</ele>
        <time>2021-05-10T21:44:24.445Z</time>
      </trkpt>
      <trkpt lat="42.834523" lon="13.563917">
        <ele>508.793987</ele>
        <time>2021-05-10T21:44:33.053Z</time>
      </trkpt>
      <trkpt lat="42.834405" lon="13.564205">
        <ele>511.519027</ele>
        <time>2021-05-10T21:44:57.678Z</time>
      </trkpt>
      <trkpt lat="42.834017" lon="13.564760">
        <ele>517.772170</ele>
        <time>2021-05-10T21:45:47.752Z</time>
      </trkpt>
      <trkpt lat="42.834097" lon="13.564930">
        <ele>519.285891</ele>
        <time>2021-05-10T21:46:08.649Z</time>
      </trkpt>
      <trkpt lat="42.834393" lon="13.564794">
        <ele>522.477830</ele>
        <time>2021-05-10T21:46:36.116Z</time>
      </trkpt>
      <trkpt lat="42.834619" lon="13.564643">
        <ele>525.049667</ele>
        <time>2021-05-10T21:46:54.590Z</time>
      </trkpt>
      <trkpt lat="42.834836" lon="13.564855">
        <ele>527.777574</ele>
        <time>2021-05-10T21:47:20.743Z</time>
      </trkpt>
      <trkpt lat="42.834920" lon="13.564974">
        <ele>529.015357</ele>
        <time>2021-05-10T21:47:26.887Z</time>
      </trkpt>
      <trkpt lat="42.835010" lon="13.565372">
        <ele>532.136488</ele>
        <time>2021-05-10T21:47:50.688Z</time>
      </trkpt>
      <trkpt lat="42.835234" lon="13.565521">
        <ele>534.683375</ele>
        <time>2021-05-10T21:48:13.191Z</time>
      </trkpt>
      <trkpt lat="42.835551" lon="13.565745">
        <ele>536.649136</ele>
        <time>2021-05-10T21:48:33.126Z</time>
      </trkpt>
      <trkpt lat="42.835641" lon="13.566004">
        <ele>537.579210</ele>
        <time>2021-05-10T21:48:44.540Z</time>
      </trkpt>
      <trkpt lat="42.835815" lon="13.566228">
        <ele>538.638122</ele>
        <time>2021-05-10T21:49:03.560Z</time>
      </trkpt>
      <trkpt lat="42.835946" lon="13.566529">
        <ele>539.773973</ele>
        <time>2021-05-10T21:49:18.271Z</time>
      </trkpt>
      <trkpt lat="42.835980" lon="13.566784">
        <ele>540.615039</ele>
        <time>2021-05-10T21:49:26.646Z</time>
      </trkpt>
      <trkpt lat="42.835964" lon="13.567021">
        <ele>541.387378</ele>
        <time>2021-05-10T21:49:34.279Z</time>
      </trkpt>
      <trkpt lat="42.835974" lon="13.567940">
        <ele>543.276314</ele>
        <time>2021-05-10T21:49:58.421Z</time>
      </trkpt>
      <trkpt lat="42.835922" lon="13.569199">
        <ele>543.092280</ele>
        <time>2021-05-10T21:50:31.977Z</time>
      </trkpt>
      <trkpt lat="42.835895" lon="13.569396">
        <ele>543.063032</ele>
        <time>2021-05-10T21:50:36.928Z</time>
      </trkpt>
      <trkpt lat="42.835748" lon="13.569684">
        <ele>543.011820</ele>
        <time>2021-05-10T21:50:45.838Z</time>
      </trkpt>
      <trkpt lat="42.835771" lon="13.569955">
        <ele>542.972006</ele>
        <time>2021-05-10T21:50:50.625Z</time>
      </trkpt>
      <trkpt lat="42.835867" lon="13.570176">
        <ele>541.989732</ele>
        <time>2021-05-10T21:50:56.201Z</time>
      </trkpt>
      <trkpt lat="42.835708" lon="13.571213">
        <ele>537.106855</ele>
        <time>2021-05-10T21:51:14.525Z</time>
      </trkpt>
      <trkpt lat="42.835609" lon="13.571595">
        <ele>535.239500</ele>
        <time>2021-05-10T21:51:21.661Z</time>
      </trkpt>
      <trkpt lat="42.835680" lon="13.571668">
        <ele>534.680623</ele>
        <time>2021-05-10T21:51:22.722Z</time>
      </trkpt>
      <trkpt lat="42.836384" lon="13.572208">
        <ele>529.359022</ele>
        <time>2021-05-10T21:51:33.206Z</time>
      </trkpt>
      <trkpt lat="42.836537" lon="13.572430">
        <ele>527.787680</ele>
        <time>2021-05-10T21:51:36.087Z</time>
      </trkpt>
      <trkpt lat="42.836573" lon="13.572568">
        <ele>527.032221</ele>
        <time>2021-05-10T21:51:37.419Z</time>
      </trkpt>
      <trkpt lat="42.836539" lon="13.573420">
        <ele>522.631365</ele>
        <time>2021-05-10T21:51:45.530Z</time>
      </trkpt>
      <trkpt lat="42.836672" lon="13.573824">
        <ele>520.347306</ele>
        <time>2021-05-10T21:51:50.051Z</time>
      </trkpt>
      <trkpt lat="42.837057" lon="13.574354">
        <ele>520.381924</ele>
        <time>2021-05-10T21:52:00.334Z</time>
      </trkpt>
      <trkpt lat="42.837128" lon="13.574434">
        <ele>520.736068</ele>
        <time>2021-05-10T21:52:01.950Z</time>
      </trkpt>
      <trkpt lat="42.837054" lon="13.574727">
        <ele>521.609857</ele>
        <time>2021-05-10T21:52:12.169Z</time>
      </trkpt>
      <trkpt lat="42.836944" lon="13.575041">
        <ele>522.591079</ele>
        <time>2021-05-10T21:52:23.907Z</time>
      </trkpt>
      <trkpt lat="42.836854" lon="13.575086">
        <ele>522.959676</ele>
        <time>2021-05-10T21:52:28.905Z</time>
      </trkpt>
      <trkpt lat="42.836769" lon="13.574643">
        <ele>524.250844</ele>
        <time>2021-05-10T21:52:47.134Z</time>
      </trkpt>
      <trkpt lat="42.836709" lon="13.574510">
        <ele>524.691147</ele>
        <time>2021-05-10T21:52:56.633Z</time>
      </trkpt>
      <trkpt lat="42.836598" lon="13.574487">
        <ele>525.122865</ele>
        <time>2021-05-10T21:53:04.600Z</time>
      </trkpt>
      <trkpt lat="42.836469" lon="13.574576">
        <ele>525.678766</ele>
        <time>2021-05-10T21:53:12.704Z</time>
      </trkpt>
      <trkpt lat="42.836441" lon="13.574758">
        <ele>526.099505</ele>
        <time>2021-05-10T21:53:23.349Z</time>
      </trkpt>
      <trkpt lat="42.836404" lon="13.575253">
        <ele>526.978212</ele>
        <time>2021-05-10T21:53:48.512Z</time>
      </trkpt>
      <trkpt lat="42.836289" lon="13.576081">
        <ele>528.466471</ele>
        <time>2021-05-10T21:54:18.794Z</time>
      </trkpt>
      <trkpt lat="42.836258" lon="13.576159">
        <ele>528.623151</ele>
        <time>2021-05-10T21:54:24.864Z</time>
      </trkpt>
      <trkpt lat="42.836203" lon="13.576049">
        <ele>528.858274</ele>
        <time>2021-05-10T21:54:28.815Z</time>
      </trkpt>
      <trkpt lat="42.836179" lon="13.575888">
        <ele>529.148419</ele>
        <time>2021-05-10T21:54:31.106Z</time>
      </trkpt>
      <trkpt lat="42.836203" lon="13.576049">
        <ele>529.438564</ele>
        <time>2021-05-10T21:54:36.714Z</time>
      </trkpt>
      <trkpt lat="42.836258" lon="13.576159">
        <ele>529.673687</ele>
        <time>2021-05-10T21:54:38.675Z</time>
      </trkpt>
      <trkpt lat="42.836289" lon="13.576081">
        <ele>529.830367</ele>
        <time>2021-05-10T21:54:39.711Z</time>
      </trkpt>
      <trkpt lat="42.836404" lon="13.575253">
        <ele>525.211478</ele>
        <time>2021-05-10T21:54:50.285Z</time>
      </trkpt>
      <trkpt lat="42.836441" lon="13.574758">
        <ele>521.032717</ele>
        <time>2021-05-10T21:54:56.176Z</time>
      </trkpt>
      <trkpt lat="42.836469" lon="13.574576">
        <ele>519.470927</ele>
        <time>2021-05-10T21:54:58.286Z</time>
      </trkpt>
      <trkpt lat="42.836598" lon="13.574487">
        <ele>517.815182</ele>
        <time>2021-05-10T21:55:00.675Z</time>
      </trkpt>
      <trkpt lat="42.836709" lon="13.574510">
        <ele>516.529313</ele>
        <time>2021-05-10T21:55:02.402Z</time>
      </trkpt>
      <trkpt lat="42.837128" lon="13.574434">
        <ele>511.688266</ele>
        <time>2021-05-10T21:55:11.031Z</time>
      </trkpt>
      <trkpt lat="42.837229" lon="13.574453">
        <ele>510.520564</ele>
        <time>2021-05-10T21:55:12.244Z</time>
      </trkpt>
      <trkpt lat="42.837356" lon="13.574485">
        <ele>509.043885</ele>
        <time>2021-05-10T21:55:13.831Z</time>
      </trkpt>
      <trkpt lat="42.837354" lon="13.574577">
        <ele>508.273994</ele>
        <time>2021-05-10T21:55:14.647Z</time>
      </trkpt>
      <trkpt lat="42.837358" lon="13.575119">
        <ele>503.740091</ele>
        <time>2021-05-10T21:55:19.492Z</time>
      </trkpt>
      <trkpt lat="42.837436" lon="13.575555">
        <ele>499.986112</ele>
        <time>2021-05-10T21:55:23.543Z</time>
      </trkpt>
      <trkpt lat="42.837544" lon="13.576100">
        <ele>495.263821</ele>
        <time>2021-05-10T21:55:28.762Z</time>
      </trkpt>
      <trkpt lat="42.837596" lon="13.576114">
        <ele>494.659201</ele>
        <time>2021-05-10T21:55:29.393Z</time>
      </trkpt>
      <trkpt lat="42.837680" lon="13.576218">
        <ele>493.365014</ele>
        <time>2021-05-10T21:55:30.825Z</time>
      </trkpt>
      <trkpt lat="42.837727" lon="13.576311">
        <ele>492.420243</ele>
        <time>2021-05-10T21:55:31.953Z</time>
      </trkpt>
      <trkpt lat="42.837609" lon="13.577118">
        <ele>486.667207</ele>
        <time>2021-05-10T21:55:40.017Z</time>
      </trkpt>
      <trkpt lat="42.837664" lon="13.577153">
        <ele>486.192013</ele>
        <time>2021-05-10T21:55:40.872Z</time>
      </trkpt>
      <trkpt lat="42.837809" lon="13.576477">
        <ele>482.148351</ele>
        <time>2021-05-10T21:55:47.599Z</time>
      </trkpt>
      <trkpt lat="42.837846" lon="13.576330">
        <ele>481.256066</ele>
        <time>2021-05-10T21:55:48.928Z</time>
      </trkpt>
      <trkpt lat="42.837922" lon="13.575989">
        <ele>479.209903</ele>
        <time>2021-05-10T21:55:52.231Z</time>
      </trkpt>
      <trkpt lat="42.838084" lon="13.575442">
        <ele>475.823032</ele>
        <time>2021-05-10T21:55:57.633Z</time>
      </trkpt>
      <trkpt lat="42.838228" lon="13.574719">
        <ele>470.115879</ele>
        <time>2021-05-10T21:56:04.198Z</time>
      </trkpt>
      <trkpt lat="42.838277" lon="13.574587">
        <ele>468.928777</ele>
        <time>2021-05-10T21:56:05.571Z</time>
      </trkpt>
      <trkpt lat="42.838303" lon="13.574542">
        <ele>468.469098</ele>
        <time>2021-05-10T21:56:06.060Z</time>
      </trkpt>
      <trkpt lat="42.838356" lon="13.574494">
        <ele>467.772927</ele>
        <time>2021-05-10T21:56:06.853Z</time>
      </trkpt>
      <trkpt lat="42.838426" lon="13.574483">
        <ele>467.001906</ele>
        <time>2021-05-10T21:56:07.660Z</time>
      </trkpt>
      <trkpt lat="42.838494" lon="13.574491">
        <ele>466.255074</ele>
        <time>2021-05-10T21:56:08.424Z</time>
      </trkpt>
      <trkpt lat="42.838635" lon="13.574610">
        <ele>464.440677</ele>
        <time>2021-05-10T21:56:10.500Z</time>
      </trkpt>
      <trkpt lat="42.838740" lon="13.574975">
        <ele>461.294762</ele>
        <time>2021-05-10T21:56:13.899Z</time>
      </trkpt>
      <trkpt lat="42.838898" lon="13.575642">
        <ele>455.670718</ele>
        <time>2021-05-10T21:56:19.975Z</time>
      </trkpt>
      <trkpt lat="42.838950" lon="13.575611">
        <ele>454.923280</ele>
        <time>2021-05-10T21:56:21.066Z</time>
      </trkpt>
      <trkpt lat="42.839011" lon="13.575459">
        <ele>452.995774</ele>
        <time>2021-05-10T21:56:23.683Z</time>
      </trkpt>
      <trkpt lat="42.838996" lon="13.575223">
        <ele>450.360684</ele>
        <time>2021-05-10T21:56:27.214Z</time>
      </trkpt>
      <trkpt lat="42.839332" lon="13.575070">
        <ele>444.986812</ele>
        <time>2021-05-10T21:56:34.353Z</time>
      </trkpt>
      <trkpt lat="42.839414" lon="13.574844">
        <ele>442.181885</ele>
        <time>2021-05-10T21:56:38.118Z</time>
      </trkpt>
      <trkpt lat="42.839650" lon="13.574801">
        <ele>438.569869</ele>
        <time>2021-05-10T21:56:42.858Z</time>
      </trkpt>
      <trkpt lat="42.840114" lon="13.574844">
        <ele>431.514591</ele>
        <time>2021-05-10T21:56:52.191Z</time>
      </trkpt>
      <trkpt lat="42.840196" lon="13.574757">
        <ele>429.938512</ele>
        <time>2021-05-10T21:56:54.203Z</time>
      </trkpt>
      <trkpt lat="42.840247" lon="13.574251">
        <ele>424.444578</ele>
        <time>2021-05-10T21:56:58.496Z</time>
      </trkpt>
      <trkpt lat="42.840261" lon="13.574173">
        <ele>423.595019</ele>
        <time>2021-05-10T21:56:59.187Z</time>
      </trkpt>
      <trkpt lat="42.840598" lon="13.574115">
        <ele>418.694183</ele>
        <time>2021-05-10T21:57:06.076Z</time>
      </trkpt>
      <trkpt lat="42.840673" lon="13.574077">
        <ele>417.539812</ele>
        <time>2021-05-10T21:57:07.776Z</time>
      </trkpt>
      <trkpt lat="42.840765" lon="13.573886">
        <ele>415.122166</ele>
        <time>2021-05-10T21:57:11.172Z</time>
      </trkpt>
      <trkpt lat="42.840846" lon="13.573669">
        <ele>412.546098</ele>
        <time>2021-05-10T21:57:14.798Z</time>
      </trkpt>
      <trkpt lat="42.840846" lon="13.573498">
        <ele>410.737031</ele>
        <time>2021-05-10T21:57:17.433Z</time>
      </trkpt>
      <trkpt lat="42.840716" lon="13.573036">
        <ele>405.501833</ele>
        <time>2021-05-10T21:57:24.806Z</time>
      </trkpt>
      <trkpt lat="42.840771" lon="13.572779">
        <ele>402.669501</ele>
        <time>2021-05-10T21:57:28.917Z</time>
      </trkpt>
      <trkpt lat="42.840705" lon="13.572462">
        <ele>398.833829</ele>
        <time>2021-05-10T21:57:33.814Z</time>
      </trkpt>
      <trkpt lat="42.840764" lon="13.572017">
        <ele>393.484238</ele>
        <time>2021-05-10T21:57:40.566Z</time>
      </trkpt>
      <trkpt lat="42.840822" lon="13.571770">
        <ele>390.416125</ele>
        <time>2021-05-10T21:57:44.446Z</time>
      </trkpt>
      <trkpt lat="42.841464" lon="13.571078">
        <ele>377.214139</ele>
        <time>2021-05-10T21:58:00.856Z</time>
      </trkpt>
      <trkpt lat="42.841535" lon="13.570891">
        <ele>374.723032</ele>
        <time>2021-05-10T21:58:03.865Z</time>
      </trkpt>
      <trkpt lat="42.841557" lon="13.570908">
        <ele>374.315086</ele>
        <time>2021-05-10T21:58:04.367Z</time>
      </trkpt>
      <trkpt lat="42.841744" lon="13.570994">
        <ele>370.511464</ele>
        <time>2021-05-10T21:58:08.371Z</time>
      </trkpt>
      <trkpt lat="42.841788" lon="13.570966">
        <ele>369.484225</ele>
        <time>2021-05-10T21:58:09.323Z</time>
      </trkpt>
      <trkpt lat="42.841781" lon="13.570950">
        <ele>369.195196</ele>
        <time>2021-05-10T21:58:09.581Z</time>
      </trkpt>
      <trkpt lat="42.841950" lon="13.571116">
        <ele>364.788936</ele>
        <time>2021-05-10T21:58:13.670Z</time>
      </trkpt>
      <trkpt lat="42.842203" lon="13.571375">
        <ele>358.096175</ele>
        <time>2021-05-10T21:58:19.825Z</time>
      </trkpt>
      <trkpt lat="42.842727" lon="13.571560">
        <ele>346.644694</ele>
        <time>2021-05-10T21:58:30.316Z</time>
      </trkpt>
      <trkpt lat="42.842999" lon="13.571121">
        <ele>337.728920</ele>
        <time>2021-05-10T21:58:38.480Z</time>
      </trkpt>
      <trkpt lat="42.843365" lon="13.570870">
        <ele>328.077459</ele>
        <time>2021-05-10T21:58:46.443Z</time>
      </trkpt>
      <trkpt lat="42.843437" lon="13.570685">
        <ele>324.296047</ele>
        <time>2021-05-10T21:58:49.455Z</time>
      </trkpt>
      <trkpt lat="42.843866" lon="13.571101">
        <ele>311.334731</ele>
        <time>2021-05-10T21:58:59.645Z</time>
      </trkpt>
      <trkpt lat="42.844082" lon="13.571095">
        <ele>306.014952</ele>
        <time>2021-05-10T21:59:03.870Z</time>
      </trkpt>
      <trkpt lat="42.844390" lon="13.570929">
        <ele>297.860230</ele>
        <time>2021-05-10T21:59:10.307Z</time>
      </trkpt>
      <trkpt lat="42.844693" lon="13.571002">
        <ele>290.275436</ele>
        <time>2021-05-10T21:59:16.286Z</time>
      </trkpt>
      <trkpt lat="42.844735" lon="13.570998">
        <ele>289.221248</ele>
        <time>2021-05-10T21:59:17.228Z</time>
      </trkpt>
      <trkpt lat="42.844816" lon="13.571017">
        <ele>287.163334</ele>
        <time>2021-05-10T21:59:18.847Z</time>
      </trkpt>
      <trkpt lat="42.845117" lon="13.571215">
        <ele>278.795893</ele>
        <time>2021-05-10T21:59:25.329Z</time>
      </trkpt>
      <trkpt lat="42.845377" lon="13.571272">
        <ele>272.202258</ele>
        <time>2021-05-10T21:59:30.586Z</time>
      </trkpt>
      <trkpt lat="42.845405" lon="13.571248">
        <ele>271.374221</ele>
        <time>2021-05-10T21:59:31.335Z</time>
      </trkpt>
      <trkpt lat="42.845547" lon="13.571212">
        <ele>267.757819</ele>
        <time>2021-05-10T21:59:34.145Z</time>
      </trkpt>
      <trkpt lat="42.845511" lon="13.571073">
        <ele>265.051511</ele>
        <time>2021-05-10T21:59:35.532Z</time>
      </trkpt>
      <trkpt lat="42.845622" lon="13.571333">
        <ele>259.528185</ele>
        <time>2021-05-10T21:59:39.895Z</time>
      </trkpt>
      <trkpt lat="42.845873" lon="13.571324">
        <ele>253.241290</ele>
        <time>2021-05-10T21:59:44.803Z</time>
      </trkpt>
      <trkpt lat="42.846036" lon="13.571460">
        <ele>248.456879</ele>
        <time>2021-05-10T21:59:48.501Z</time>
      </trkpt>
      <trkpt lat="42.846069" lon="13.571571">
        <ele>246.257992</ele>
        <time>2021-05-10T21:59:50.211Z</time>
      </trkpt>
      <trkpt lat="42.846255" lon="13.571569">
        <ele>242.259091</ele>
        <time>2021-05-10T21:59:53.809Z</time>
      </trkpt>
      <trkpt lat="42.846487" lon="13.571324">
        <ele>236.079935</ele>
        <time>2021-05-10T21:59:59.489Z</time>
      </trkpt>
      <trkpt lat="42.846561" lon="13.571368">
        <ele>234.379872</ele>
        <time>2021-05-10T22:00:01.068Z</time>
      </trkpt>
      <trkpt lat="42.846612" lon="13.571180">
        <ele>231.284738</ele>
        <time>2021-05-10T22:00:03.930Z</time>
      </trkpt>
      <trkpt lat="42.846727" lon="13.571330">
        <ele>227.933683</ele>
        <time>2021-05-10T22:00:07.097Z</time>
      </trkpt>
      <trkpt lat="42.846738" lon="13.571468">
        <ele>225.790349</ele>
        <time>2021-05-10T22:00:09.158Z</time>
      </trkpt>
      <trkpt lat="42.846772" lon="13.571517">
        <ele>224.748662</ele>
        <time>2021-05-10T22:00:10.154Z</time>
      </trkpt>
      <trkpt lat="42.846801" lon="13.571508">
        <ele>224.122322</ele>
        <time>2021-05-10T22:00:10.752Z</time>
      </trkpt>
      <trkpt lat="42.846888" lon="13.571250">
        <ele>219.737556</ele>
        <time>2021-05-10T22:00:14.975Z</time>
      </trkpt>
      <trkpt lat="42.847053" lon="13.571781">
        <ele>210.832759</ele>
        <time>2021-05-10T22:00:23.360Z</time>
      </trkpt>
      <trkpt lat="42.847202" lon="13.571862">
        <ele>207.554107</ele>
        <time>2021-05-10T22:00:26.506Z</time>
      </trkpt>
      <trkpt lat="42.847293" lon="13.571840">
        <ele>206.078728</ele>
        <time>2021-05-10T22:00:28.358Z</time>
      </trkpt>
      <trkpt lat="42.847375" lon="13.571583">
        <ele>202.798201</ele>
        <time>2021-05-10T22:00:32.361Z</time>
      </trkpt>
      <trkpt lat="42.847556" lon="13.571363">
        <ele>198.927846</ele>
        <time>2021-05-10T22:00:37.390Z</time>
      </trkpt>
      <trkpt lat="42.847603" lon="13.571213">
        <ele>197.018584</ele>
        <time>2021-05-10T22:00:39.740Z</time>
      </trkpt>
      <trkpt lat="42.847672" lon="13.571060">
        <ele>194.916161</ele>
        <time>2021-05-10T22:00:41.782Z</time>
      </trkpt>
      <trkpt lat="42.847796" lon="13.570966">
        <ele>192.651416</ele>
        <time>2021-05-10T22:00:44.163Z</time>
      </trkpt>
      <trkpt lat="42.848164" lon="13.570851">
        <ele>186.624401</ele>
        <time>2021-05-10T22:00:50.093Z</time>
      </trkpt>
      <trkpt lat="42.848334" lon="13.570839">
        <ele>183.906870</ele>
        <time>2021-05-10T22:00:52.692Z</time>
      </trkpt>
      <trkpt lat="42.848337" lon="13.570942">
        <ele>182.700387</ele>
        <time>2021-05-10T22:00:53.608Z</time>
      </trkpt>
      <trkpt lat="42.848313" lon="13.570948">
        <ele>182.310865</ele>
        <time>2021-05-10T22:00:53.924Z</time>
      </trkpt>
      <trkpt lat="42.848279" lon="13.571061">
        <ele>180.881245</ele>
        <time>2021-05-10T22:00:54.984Z</time>
      </trkpt>
      <trkpt lat="42.848293" lon="13.571089">
        <ele>180.484571</ele>
        <time>2021-05-10T22:00:55.260Z</time>
      </trkpt>
      <trkpt lat="42.848314" lon="13.571107">
        <ele>180.088624</ele>
        <time>2021-05-10T22:00:55.538Z</time>
      </trkpt>
      <trkpt lat="42.848337" lon="13.571113">
        <ele>179.714794</ele>
        <time>2021-05-10T22:00:55.802Z</time>
      </trkpt>
      <trkpt lat="42.848363" lon="13.571105">
        <ele>179.289297</ele>
        <time>2021-05-10T22:00:56.098Z</time>
      </trkpt>
      <trkpt lat="42.848400" lon="13.571028">
        <ele>178.769515</ele>
        <time>2021-05-10T22:00:56.863Z</time>
      </trkpt>
      <trkpt lat="42.848395" lon="13.570995">
        <ele>178.609216</ele>
        <time>2021-05-10T22:00:57.147Z</time>
      </trkpt>
      <trkpt lat="42.848584" lon="13.570853">
        <ele>177.209167</ele>
        <time>2021-05-10T22:00:59.714Z</time>
      </trkpt>
      <trkpt lat="42.848633" lon="13.570933">
        <ele>176.713276</ele>
        <time>2021-05-10T22:01:00.574Z</time>
      </trkpt>
      <trkpt lat="42.848704" lon="13.571051">
        <ele>175.987114</ele>
        <time>2021-05-10T22:01:01.896Z</time>
      </trkpt>
      <trkpt lat="42.849386" lon="13.572175">
        <ele>169.046633</ele>
        <time>2021-05-10T22:01:16.163Z</time>
      </trkpt>
      <trkpt lat="42.849450" lon="13.572390">
        <ele>167.942801</ele>
        <time>2021-05-10T22:01:19.017Z</time>
      </trkpt>
      <trkpt lat="42.849413" lon="13.573068">
        <ele>168.916428</ele>
        <time>2021-05-10T22:01:28.066Z</time>
      </trkpt>
      <trkpt lat="42.849406" lon="13.573291">
        <ele>169.466136</ele>
        <time>2021-05-10T22:01:33.631Z</time>
      </trkpt>
      <trkpt lat="42.849525" lon="13.573298">
        <ele>169.866257</ele>
        <time>2021-05-10T22:01:36.560Z</time>
      </trkpt>
      <trkpt lat="42.849697" lon="13.573537">
        <ele>170.691060</ele>
        <time>2021-05-10T22:01:47.476Z</time>
      </trkpt>
      <trkpt lat="42.850409" lon="13.574222">
        <ele>173.632332</ele>
        <time>2021-05-10T22:02:31.393Z</time>
      </trkpt>
      <trkpt lat="42.850681" lon="13.574430">
        <ele>174.838989</ele>
        <time>2021-05-10T22:02:48.941Z</time>
      </trkpt>
      <trkpt lat="42.850760" lon="13.573940">
        <ele>176.262297</ele>
        <time>2021-05-10T22:03:08.334Z</time>
      </trkpt>
      <trkpt lat="42.851009" lon="13.573245">
        <ele>178.456794</ele>
        <time>2021-05-10T22:03:29.686Z</time>
      </trkpt>
      <trkpt lat="42.851036" lon="13.573054">
        <ele>179.008624</ele>
        <time>2021-05-10T22:03:33.857Z</time>
      </trkpt>
      <trkpt lat="42.851121" lon="13.573066">
        <ele>179.339297</ele>
        <time>2021-05-10T22:03:36.080Z</time>
      </trkpt>
      <trkpt lat="42.851256" lon="13.573093">
        <ele>179.867280</ele>
        <time>2021-05-10T22:03:40.088Z</time>
      </trkpt>
      <trkpt lat="42.851246" lon="13.573375">
        <ele>180.483193</ele>
        <time>2021-05-10T22:03:45.204Z</time>
      </trkpt>
      <trkpt lat="42.851213" lon="13.574020">
        <ele>180.483193</ele>
        <time>2021-05-10T22:03:54.718Z</time>
      </trkpt>
      <trkpt lat="42.851215" lon="13.574199">
        <ele>180.483193</ele>
        <time>2021-05-10T22:03:56.879Z</time>
      </trkpt>
      <trkpt lat="42.851277" lon="13.574403">
        <ele>180.483193</ele>
        <time>2021-05-10T22:03:59.812Z</time>
      </trkpt>
      <trkpt lat="42.851305" lon="13.574474">
        <ele>180.483193</ele>
        <time>2021-05-10T22:04:00.821Z</time>
      </trkpt>
      <trkpt lat="42.851360" lon="13.574614">
        <ele>180.483193</ele>
        <time>2021-05-10T22:04:02.721Z</time>
      </trkpt>
      <trkpt lat="42.851373" lon="13.574643">
        <ele>180.483193</ele>
        <time>2021-05-10T22:04:03.088Z</time>
      </trkpt>
      <trkpt lat="42.851431" lon="13.574771">
        <ele>180.483193</ele>
        <time>2021-05-10T22:04:04.936Z</time>
      </trkpt>
      <trkpt lat="42.851439" lon="13.574866">
        <ele>180.483193</ele>
        <time>2021-05-10T22:04:06.267Z</time>
      </trkpt>
      <trkpt lat="42.851451" lon="13.574931">
        <ele>180.483193</ele>
        <time>2021-05-10T22:04:07.052Z</time>
      </trkpt>
    </trkseg>
  </trk>
</gpx>